Wetterdaten: Freitag, 03.02.2023
Datum Zeit Temp. Aussen Temp. o. S. Temp +5cm Feuchte Auss Luftdruck Regen Sonnenschein Regendauer Solar Windben Empfang
03.02.2023 00:00 8,2 C 7,8 C 4,4 C 94 % 1026,5 hPa 0,0 l/m 0 min 0 min 0 W/m 12,9 km/h (3 Bft) 100,00 %
03.02.2023 00:02 8,2 C 7,8 C 4,4 C 94 % 1026,3 hPa 0,0 l/m 0 min 0 min 0 W/m 19,3 km/h (3 Bft) 97,56 %
03.02.2023 00:04 8,3 C 7,8 C 4,4 C 94 % 1026,4 hPa 0,0 l/m 0 min 0 min 0 W/m 12,9 km/h (3 Bft) 97,87 %
03.02.2023 00:07 8,3 C 7,8 C 4,4 C 94 % 1026,3 hPa 0,0 l/m 0 min 0 min 0 W/m 16,1 km/h (3 Bft) 98,61 %
03.02.2023 00:08 8,3 C 7,8 C 4,4 C 94 % 1026,3 hPa 0,0 l/m 0 min 0 min 0 W/m 12,9 km/h (3 Bft) 95,83 %
03.02.2023 00:12 8,3 C 7,8 C 4,4 C 94 % 1026,3 hPa 0,0 l/m 0 min 0 min 0 W/m 12,9 km/h (3 Bft) 95,83 %
03.02.2023 00:14 8,3 C 7,8 C 4,4 C 94 % 1026,3 hPa 0,0 l/m 0 min 0 min 0 W/m 16,1 km/h (3 Bft) 100,00 %
03.02.2023 00:16 8,3 C 7,8 C 4,4 C 94 % 1026,4 hPa 0,0 l/m 0 min 0 min 0 W/m 16,1 km/h (3 Bft) 100,00 %
03.02.2023 00:18 8,3 C 7,8 C 4,4 C 94 % 1026,2 hPa 0,0 l/m 0 min 0 min 0 W/m 16,1 km/h (3 Bft) 100,00 %
03.02.2023 00:20 8,3 C 7,8 C 4,4 C 94 % 1026,3 hPa 0,0 l/m 0 min 0 min 0 W/m 16,1 km/h (3 Bft) 100,00 %
03.02.2023 00:22 8,3 C 7,8 C 4,4 C 94 % 1026,3 hPa 0,0 l/m 0 min 0 min 0 W/m 16,1 km/h (3 Bft) 100,00 %
03.02.2023 00:24 8,4 C 7,8 C 4,4 C 94 % 1026,4 hPa 0,0 l/m 0 min 0 min 0 W/m 12,9 km/h (3 Bft) 100,00 %
03.02.2023 00:26 8,4 C 7,8 C 4,4 C 94 % 1026,4 hPa 0,0 l/m 0 min 0 min 0 W/m 19,3 km/h (3 Bft) 97,87 %
03.02.2023 00:28 8,4 C 7,8 C 5,0 C 94 % 1026,4 hPa 0,0 l/m 0 min 0 min 0 W/m 19,3 km/h (3 Bft) 100,00 %
03.02.2023 00:30 8,4 C 7,8 C 5,0 C 93 % 1026,4 hPa 0,0 l/m 0 min 0 min 0 W/m 16,1 km/h (3 Bft) 100,00 %
03.02.2023 00:32 8,4 C 7,8 C 5,0 C 93 % 1026,4 hPa 0,0 l/m 0 min 0 min 0 W/m 12,9 km/h (3 Bft) 100,00 %
03.02.2023 00:34 8,4 C 7,8 C 5,0 C 93 % 1026,3 hPa 0,0 l/m 0 min 0 min 0 W/m 12,9 km/h (3 Bft) 97,87 %
03.02.2023 00:36 8,4 C 7,8 C 5,0 C 93 % 1026,4 hPa 0,0 l/m 0 min 0 min 0 W/m 25,7 km/h (4 Bft) 100,00 %
03.02.2023 00:38 8,4 C 7,8 C 5,0 C 93 % 1026,2 hPa 0,0 l/m 0 min 0 min 0 W/m 12,9 km/h (3 Bft) 100,00 %
03.02.2023 00:40 8,4 C 7,8 C 5,0 C 93 % 1026,2 hPa 0,0 l/m 0 min 0 min 0 W/m 12,9 km/h (3 Bft) 100,00 %
03.02.2023 00:42 8,4 C 7,8 C 5,0 C 93 % 1026,2 hPa 0,0 l/m 0 min 0 min 0 W/m 12,9 km/h (3 Bft) 95,65 %
03.02.2023 00:44 8,4 C 7,8 C 5,0 C 93 % 1026,1 hPa 0,0 l/m 0 min 0 min 0 W/m 12,9 km/h (3 Bft) 97,87 %
03.02.2023 00:46 8,4 C 7,8 C 5,0 C 93 % 1026,0 hPa 0,0 l/m 0 min 0 min 0 W/m 16,1 km/h (3 Bft) 97,87 %
03.02.2023 00:48 8,4 C 7,8 C 5,0 C 93 % 1025,9 hPa 0,0 l/m 0 min 0 min 0 W/m 16,1 km/h (3 Bft) 97,87 %
03.02.2023 00:50 8,4 C 7,8 C 5,0 C 93 % 1025,9 hPa 0,0 l/m 0 min 0 min 0 W/m 16,1 km/h (3 Bft) 95,74 %
03.02.2023 00:52 8,4 C 7,8 C 5,0 C 93 % 1025,9 hPa 0,0 l/m 0 min 0 min 0 W/m 16,1 km/h (3 Bft) 97,87 %
03.02.2023 00:54 8,5 C 7,8 C 5,0 C 93 % 1025,9 hPa 0,0 l/m 0 min 0 min 0 W/m 25,7 km/h (4 Bft) 97,83 %
03.02.2023 00:56 8,4 C 7,8 C 5,0 C 93 % 1025,9 hPa 0,0 l/m 0 min 0 min 0 W/m 19,3 km/h (3 Bft) 97,87 %
03.02.2023 00:58 8,4 C 7,8 C 5,0 C 93 % 1025,7 hPa 0,0 l/m 0 min 0 min 0 W/m 16,1 km/h (3 Bft) 97,87 %
03.02.2023 01:00 8,5 C 7,8 C 5,0 C 93 % 1025,6 hPa 0,0 l/m 0 min 0 min 0 W/m 16,1 km/h (3 Bft) 95,74 %
03.02.2023 01:02 8,5 C 7,8 C 5,0 C 93 % 1025,5 hPa 0,0 l/m 0 min 0 min 0 W/m 12,9 km/h (3 Bft) 97,87 %
03.02.2023 01:04 8,4 C 7,8 C 5,0 C 93 % 1025,6 hPa 0,0 l/m 0 min 0 min 0 W/m 12,9 km/h (3 Bft) 97,87 %
03.02.2023 01:06 8,4 C 7,8 C 5,0 C 93 % 1025,4 hPa 0,0 l/m 0 min 0 min 0 W/m 12,9 km/h (3 Bft) 93,10 %
03.02.2023 01:08 8,4 C 7,8 C 5,0 C 93 % 1025,4 hPa 0,0 l/m 0 min 0 min 0 W/m 22,5 km/h (4 Bft) 100,00 %
03.02.2023 01:10 8,4 C 7,8 C 5,0 C 93 % 1025,4 hPa 0,0 l/m 0 min 0 min 0 W/m 16,1 km/h (3 Bft) 97,87 %
03.02.2023 01:12 8,4 C 7,8 C 5,0 C 93 % 1025,5 hPa 0,0 l/m 0 min 0 min 0 W/m 16,1 km/h (3 Bft) 95,74 %
03.02.2023 01:14 8,5 C 7,8 C 5,0 C 93 % 1025,5 hPa 0,0 l/m 0 min 0 min 0 W/m 19,3 km/h (3 Bft) 95,74 %
03.02.2023 01:16 8,5 C 7,8 C 5,0 C 93 % 1025,4 hPa 0,0 l/m 0 min 0 min 0 W/m 25,7 km/h (4 Bft) 97,87 %
03.02.2023 01:18 8,5 C 7,8 C 5,0 C 93 % 1025,4 hPa 0,0 l/m 0 min 0 min 0 W/m 12,9 km/h (3 Bft) 97,87 %
03.02.2023 01:20 8,5 C 7,8 C 5,0 C 93 % 1025,4 hPa 0,0 l/m 0 min 0 min 0 W/m 16,1 km/h (3 Bft) 93,48 %
03.02.2023 01:22 8,5 C 7,8 C 5,0 C 92 % 1025,4 hPa 0,0 l/m 0 min 0 min 0 W/m 6,4 km/h (2 Bft) 95,74 %
03.02.2023 01:24 8,5 C 7,8 C 5,0 C 92 % 1025,3 hPa 0,0 l/m 0 min 0 min 0 W/m 22,5 km/h (4 Bft) 97,87 %
03.02.2023 01:26 8,5 C 7,8 C 5,0 C 93 % 1025,4 hPa 0,0 l/m 0 min 0 min 0 W/m 12,9 km/h (3 Bft) 97,87 %
03.02.2023 01:28 8,5 C 7,8 C 5,0 C 92 % 1025,5 hPa 0,0 l/m 0 min 0 min 0 W/m 12,9 km/h (3 Bft) 95,74 %
03.02.2023 01:30 8,5 C 7,8 C 5,0 C 92 % 1025,4 hPa 0,0 l/m 0 min 0 min 0 W/m 9,7 km/h (2 Bft) 93,62 %
03.02.2023 01:32 8,5 C 7,8 C 5,0 C 92 % 1025,3 hPa 0,0 l/m 0 min 0 min 0 W/m 16,1 km/h (3 Bft) 93,62 %
03.02.2023 01:34 8,5 C 7,8 C 5,0 C 92 % 1025,2 hPa 0,0 l/m 0 min 0 min 0 W/m 16,1 km/h (3 Bft) 93,48 %
03.02.2023 01:36 8,5 C 7,8 C 5,0 C 92 % 1025,2 hPa 0,0 l/m 0 min 0 min 0 W/m 16,1 km/h (3 Bft) 97,87 %
03.02.2023 01:38 8,5 C 7,8 C 5,0 C 92 % 1025,2 hPa 0,0 l/m 0 min 0 min 0 W/m 22,5 km/h (4 Bft) 97,87 %
03.02.2023 01:40 8,5 C 7,8 C 5,0 C 92 % 1025,2 hPa 0,0 l/m 0 min 0 min 0 W/m 12,9 km/h (3 Bft) 97,87 %
03.02.2023 01:42 8,5 C 7,8 C 5,0 C 92 % 1025,1 hPa 0,0 l/m 0 min 0 min 0 W/m 22,5 km/h (4 Bft) 95,74 %
03.02.2023 01:44 8,5 C 7,8 C 5,0 C 92 % 1025,1 hPa 0,0 l/m 0 min 0 min 0 W/m 19,3 km/h (3 Bft) 95,74 %
03.02.2023 01:46 8,5 C 7,8 C 5,0 C 92 % 1025,2 hPa 0,0 l/m 0 min 0 min 0 W/m 19,3 km/h (3 Bft) 95,65 %
03.02.2023 01:48 8,5 C 7,8 C 5,0 C 92 % 1025,3 hPa 0,0 l/m 0 min 0 min 0 W/m 12,9 km/h (3 Bft) 93,62 %
03.02.2023 01:50 8,5 C 7,8 C 5,0 C 92 % 1025,3 hPa 0,0 l/m 0 min 0 min 0 W/m 12,9 km/h (3 Bft) 95,74 %
03.02.2023 01:52 8,5 C 7,8 C 5,0 C 92 % 1025,3 hPa 0,0 l/m 0 min 0 min 0 W/m 12,9 km/h (3 Bft) 95,74 %
03.02.2023 01:54 8,5 C 7,8 C 5,0 C 92 % 1025,3 hPa 0,0 l/m 0 min 0 min 0 W/m 16,1 km/h (3 Bft) 93,62 %
03.02.2023 01:56 8,5 C 7,8 C 5,0 C 92 % 1025,3 hPa 0,0 l/m 0 min 0 min 0 W/m 12,9 km/h (3 Bft) 97,87 %
03.02.2023 01:58 8,5 C 7,8 C 5,0 C 92 % 1025,4 hPa 0,0 l/m 0 min 0 min 0 W/m 16,1 km/h (3 Bft) 97,87 %
03.02.2023 02:00 8,5 C 7,8 C 5,0 C 92 % 1025,3 hPa 0,0 l/m 0 min 0 min 0 W/m 16,1 km/h (3 Bft) 95,65 %
03.02.2023 02:02 8,5 C 7,8 C 5,0 C 92 % 1025,3 hPa 0,0 l/m 0 min 0 min 0 W/m 9,7 km/h (2 Bft) 95,74 %
03.02.2023 02:04 8,5 C 7,8 C 5,0 C 92 % 1025,4 hPa 0,0 l/m 0 min 0 min 0 W/m 16,1 km/h (3 Bft) 97,87 %
03.02.2023 02:06 8,5 C 7,8 C 5,0 C 92 % 1025,5 hPa 0,0 l/m 0 min 0 min 0 W/m 16,1 km/h (3 Bft) 98,31 %
03.02.2023 02:08 8,5 C 7,8 C 5,0 C 92 % 1025,5 hPa 0,0 l/m 0 min 0 min 0 W/m 16,1 km/h (3 Bft) 97,14 %
03.02.2023 02:10 8,5 C 7,8 C 5,0 C 92 % 1025,7 hPa 0,0 l/m 0 min 0 min 0 W/m 16,1 km/h (3 Bft) 97,87 %
03.02.2023 02:12 8,5 C 7,8 C 5,0 C 93 % 1025,6 hPa 0,0 l/m 0 min 0 min 0 W/m 12,9 km/h (3 Bft) 97,83 %
03.02.2023 02:14 8,5 C 7,8 C 5,0 C 92 % 1025,7 hPa 0,0 l/m 0 min 0 min 0 W/m 16,1 km/h (3 Bft) 97,87 %
03.02.2023 02:16 8,5 C 7,8 C 5,0 C 92 % 1025,7 hPa 0,0 l/m 0 min 0 min 0 W/m 16,1 km/h (3 Bft) 95,74 %
03.02.2023 02:18 8,5 C 7,8 C 5,0 C 92 % 1025,7 hPa 0,0 l/m 0 min 0 min 0 W/m 9,7 km/h (2 Bft) 95,74 %
03.02.2023 02:20 8,5 C 7,8 C 5,0 C 92 % 1025,8 hPa 0,0 l/m 0 min 0 min 0 W/m 22,5 km/h (4 Bft) 97,87 %
03.02.2023 02:22 8,5 C 7,8 C 5,0 C 92 % 1025,8 hPa 0,0 l/m 0 min 0 min 0 W/m 12,9 km/h (3 Bft) 95,74 %
03.02.2023 02:24 8,5 C 7,8 C 5,0 C 92 % 1025,8 hPa 0,0 l/m 0 min 0 min 0 W/m 16,1 km/h (3 Bft) 97,87 %
03.02.2023 02:26 8,6 C 7,8 C 5,0 C 92 % 1025,8 hPa 0,0 l/m 0 min 0 min 0 W/m 12,9 km/h (3 Bft) 97,83 %
03.02.2023 02:28 8,5 C 7,8 C 5,0 C 92 % 1025,8 hPa 0,0 l/m 0 min 0 min 0 W/m 19,3 km/h (3 Bft) 95,74 %
03.02.2023 02:30 8,5 C 7,8 C 5,0 C 92 % 1025,7 hPa 0,0 l/m 0 min 0 min 0 W/m 19,3 km/h (3 Bft) 97,87 %
03.02.2023 02:32 8,5 C 7,8 C 5,0 C 92 % 1025,8 hPa 0,0 l/m 0 min 0 min 0 W/m 16,1 km/h (3 Bft) 97,87 %
03.02.2023 02:34 8,5 C 7,8 C 5,0 C 92 % 1025,9 hPa 0,0 l/m 0 min 0 min 0 W/m 19,3 km/h (3 Bft) 100,00 %
03.02.2023 02:36 8,6 C 7,8 C 5,0 C 92 % 1025,9 hPa 0,0 l/m 0 min 0 min 0 W/m 12,9 km/h (3 Bft) 100,00 %
03.02.2023 02:38 8,6 C 7,8 C 5,0 C 92 % 1025,9 hPa 0,0 l/m 0 min 0 min 0 W/m 12,9 km/h (3 Bft) 100,00 %
03.02.2023 02:40 8,6 C 7,8 C 5,0 C 92 % 1025,9 hPa 0,0 l/m 0 min 0 min 0 W/m 16,1 km/h (3 Bft) 97,83 %
03.02.2023 02:42 8,6 C 7,8 C 5,0 C 92 % 1025,8 hPa 0,0 l/m 0 min 0 min 0 W/m 12,9 km/h (3 Bft) 100,00 %
03.02.2023 02:44 8,6 C 7,8 C 5,0 C 92 % 1025,9 hPa 0,0 l/m 0 min 0 min 0 W/m 16,1 km/h (3 Bft) 100,00 %
03.02.2023 02:46 8,6 C 7,8 C 5,0 C 92 % 1025,9 hPa 0,0 l/m 0 min 0 min 0 W/m 16,1 km/h (3 Bft) 100,00 %
03.02.2023 02:48 8,6 C 7,8 C 5,0 C 92 % 1025,9 hPa 0,0 l/m 0 min 0 min 0 W/m 19,3 km/h (3 Bft) 100,00 %
03.02.2023 02:50 8,6 C 7,8 C 5,0 C 92 % 1025,9 hPa 0,0 l/m 0 min 0 min 0 W/m 16,1 km/h (3 Bft) 97,87 %
03.02.2023 02:52 8,6 C 7,8 C 5,0 C 92 % 1025,8 hPa 0,0 l/m 0 min 0 min 0 W/m 16,1 km/h (3 Bft) 100,00 %
03.02.2023 02:54 8,6 C 7,8 C 5,0 C 92 % 1025,7 hPa 0,0 l/m 0 min 0 min 0 W/m 19,3 km/h (3 Bft) 100,00 %
03.02.2023 02:56 8,6 C 7,8 C 5,0 C 92 % 1025,7 hPa 0,0 l/m 0 min 0 min 0 W/m 9,7 km/h (2 Bft) 100,00 %
03.02.2023 02:58 8,6 C 7,8 C 5,0 C 92 % 1025,7 hPa 0,0 l/m 0 min 0 min 0 W/m 16,1 km/h (3 Bft) 100,00 %
03.02.2023 03:00 8,6 C 7,8 C 5,0 C 92 % 1025,7 hPa 0,0 l/m 0 min 0 min 0 W/m 12,9 km/h (3 Bft) 97,87 %
03.02.2023 03:02 8,6 C 7,8 C 5,0 C 92 % 1025,8 hPa 0,0 l/m 0 min 0 min 0 W/m 16,1 km/h (3 Bft) 97,87 %
03.02.2023 03:04 8,6 C 7,8 C 5,0 C 92 % 1025,7 hPa 0,0 l/m 0 min 0 min 0 W/m 12,9 km/h (3 Bft) 100,00 %
03.02.2023 03:06 8,6 C 7,8 C 5,0 C 92 % 1025,9 hPa 0,0 l/m 0 min 0 min 0 W/m 16,1 km/h (3 Bft) 100,00 %
03.02.2023 03:08 8,6 C 7,8 C 5,0 C 92 % 1025,9 hPa 0,0 l/m 0 min 0 min 0 W/m 16,1 km/h (3 Bft) 97,14 %
03.02.2023 03:10 8,6 C 7,8 C 5,0 C 92 % 1025,8 hPa 0,0 l/m 0 min 0 min 0 W/m 9,7 km/h (2 Bft) 97,87 %
03.02.2023 03:12 8,6 C 7,8 C 5,0 C 92 % 1025,9 hPa 0,0 l/m 0 min 0 min 0 W/m 19,3 km/h (3 Bft) 100,00 %
03.02.2023 03:14 8,6 C 7,8 C 5,0 C 92 % 1025,8 hPa 0,0 l/m 0 min 0 min 0 W/m 16,1 km/h (3 Bft) 97,87 %
03.02.2023 03:16 8,6 C 7,8 C 5,0 C 92 % 1025,8 hPa 0,0 l/m 0 min 0 min 0 W/m 16,1 km/h (3 Bft) 95,74 %
03.02.2023 03:18 8,7 C 7,8 C 5,0 C 92 % 1025,7 hPa 0,0 l/m 0 min 0 min 0 W/m 16,1 km/h (3 Bft) 95,74 %
03.02.2023 03:20 8,7 C 7,8 C 5,0 C 92 % 1025,6 hPa 0,0 l/m 0 min 0 min 0 W/m 19,3 km/h (3 Bft) 95,65 %
03.02.2023 03:22 8,7 C 7,8 C 5,0 C 92 % 1025,5 hPa 0,0 l/m 0 min 0 min 0 W/m 12,9 km/h (3 Bft) 95,74 %
03.02.2023 03:24 8,6 C 7,8 C 5,0 C 92 % 1025,4 hPa 0,0 l/m 0 min 0 min 0 W/m 12,9 km/h (3 Bft) 93,62 %
03.02.2023 03:26 8,6 C 7,8 C 5,0 C 92 % 1025,4 hPa 0,0 l/m 0 min 0 min 0 W/m 12,9 km/h (3 Bft) 93,62 %
03.02.2023 03:28 8,6 C 7,8 C 5,0 C 91 % 1025,4 hPa 0,0 l/m 0 min 0 min 0 W/m 22,5 km/h (4 Bft) 95,74 %
03.02.2023 03:30 8,6 C 7,8 C 5,0 C 91 % 1025,3 hPa 0,0 l/m 0 min 0 min 0 W/m 12,9 km/h (3 Bft) 95,74 %
03.02.2023 03:32 8,6 C 7,8 C 5,0 C 91 % 1025,3 hPa 0,0 l/m 0 min 0 min 0 W/m 22,5 km/h (4 Bft) 97,83 %
03.02.2023 03:34 8,7 C 7,8 C 5,0 C 91 % 1025,4 hPa 0,0 l/m 0 min 0 min 0 W/m 19,3 km/h (3 Bft) 95,74 %
03.02.2023 03:36 8,6 C 7,8 C 5,0 C 91 % 1025,4 hPa 0,0 l/m 0 min 0 min 0 W/m 16,1 km/h (3 Bft) 93,62 %
03.02.2023 03:38 8,6 C 7,8 C 5,0 C 91 % 1025,3 hPa 0,0 l/m 0 min 0 min 0 W/m 12,9 km/h (3 Bft) 91,49 %
03.02.2023 03:40 8,6 C 7,8 C 5,0 C 91 % 1025,3 hPa 0,0 l/m 0 min 0 min 0 W/m 16,1 km/h (3 Bft) 93,62 %
03.02.2023 03:42 8,7 C 7,8 C 5,0 C 91 % 1025,2 hPa 0,0 l/m 0 min 0 min 0 W/m 22,5 km/h (4 Bft) 95,74 %
03.02.2023 03:44 8,7 C 7,8 C 5,0 C 91 % 1025,4 hPa 0,0 l/m 0 min 0 min 0 W/m 16,1 km/h (3 Bft) 91,49 %
03.02.2023 03:46 8,7 C 7,8 C 5,0 C 91 % 1025,3 hPa 0,0 l/m 0 min 0 min 0 W/m 16,1 km/h (3 Bft) 95,65 %
03.02.2023 03:48 8,7 C 7,8 C 5,0 C 91 % 1025,3 hPa 0,0 l/m 0 min 0 min 0 W/m 19,3 km/h (3 Bft) 95,74 %
03.02.2023 03:50 8,7 C 7,8 C 5,0 C 91 % 1025,3 hPa 0,0 l/m 0 min 0 min 0 W/m 12,9 km/h (3 Bft) 95,74 %
03.02.2023 03:52 8,7 C 7,8 C 5,0 C 91 % 1025,2 hPa 0,0 l/m 0 min 0 min 0 W/m 19,3 km/h (3 Bft) 97,87 %
03.02.2023 03:54 8,7 C 7,8 C 5,0 C 91 % 1025,3 hPa 0,0 l/m 0 min 0 min 0 W/m 12,9 km/h (3 Bft) 93,62 %
03.02.2023 03:56 8,7 C 7,8 C 5,0 C 91 % 1025,3 hPa 0,0 l/m 0 min 0 min 0 W/m 12,9 km/h (3 Bft) 97,87 %
03.02.2023 03:58 8,7 C 7,8 C 5,0 C 91 % 1025,3 hPa 0,0 l/m 0 min 0 min 0 W/m 19,3 km/h (3 Bft) 97,87 %
03.02.2023 04:00 8,7 C 7,8 C 5,0 C 91 % 1025,3 hPa 0,0 l/m 0 min 0 min 0 W/m 12,9 km/h (3 Bft) 97,83 %
03.02.2023 04:02 8,7 C 7,8 C 5,0 C 91 % 1025,3 hPa 0,0 l/m 0 min 0 min 0 W/m 12,9 km/h (3 Bft) 100,00 %
03.02.2023 04:04 8,7 C 7,8 C 5,0 C 91 % 1025,4 hPa 0,0 l/m 0 min 0 min 0 W/m 19,3 km/h (3 Bft) 100,00 %
03.02.2023 04:06 8,7 C 7,8 C 5,0 C 91 % 1025,2 hPa 0,0 l/m 0 min 0 min 0 W/m 12,9 km/h (3 Bft) 94,64 %
03.02.2023 04:08 8,7 C 7,8 C 5,0 C 91 % 1025,2 hPa 0,0 l/m 0 min 0 min 0 W/m 12,9 km/h (3 Bft) 100,00 %
03.02.2023 04:10 8,7 C 7,8 C 5,0 C 91 % 1025,1 hPa 0,0 l/m 0 min 0 min 0 W/m 16,1 km/h (3 Bft) 100,00 %
03.02.2023 04:12 8,7 C 7,8 C 5,0 C 91 % 1025,0 hPa 0,0 l/m 0 min 0 min 0 W/m 19,3 km/h (3 Bft) 95,74 %
03.02.2023 04:14 8,7 C 7,8 C 5,0 C 91 % 1025,0 hPa 0,0 l/m 0 min 0 min 0 W/m 16,1 km/h (3 Bft) 97,87 %
03.02.2023 04:16 8,7 C 7,8 C 5,0 C 91 % 1025,1 hPa 0,0 l/m 0 min 0 min 0 W/m 16,1 km/h (3 Bft) 97,83 %
03.02.2023 04:18 8,7 C 7,8 C 5,0 C 91 % 1025,1 hPa 0,0 l/m 0 min 0 min 0 W/m 16,1 km/h (3 Bft) 93,62 %
03.02.2023 04:20 8,7 C 7,8 C 5,0 C 91 % 1025,3 hPa 0,0 l/m 0 min 0 min 0 W/m 16,1 km/h (3 Bft) 100,00 %
03.02.2023 04:22 8,7 C 7,8 C 5,0 C 91 % 1025,2 hPa 0,0 l/m 0 min 0 min 0 W/m 12,9 km/h (3 Bft) 100,00 %
03.02.2023 04:24 8,7 C 7,8 C 5,0 C 91 % 1025,3 hPa 0,0 l/m 0 min 0 min 0 W/m 12,9 km/h (3 Bft) 97,87 %
03.02.2023 04:26 8,7 C 7,8 C 5,0 C 91 % 1025,3 hPa 0,0 l/m 0 min 0 min 0 W/m 16,1 km/h (3 Bft) 100,00 %
03.02.2023 04:28 8,7 C 7,8 C 5,0 C 91 % 1025,4 hPa 0,0 l/m 0 min 0 min 0 W/m 25,7 km/h (4 Bft) 100,00 %
03.02.2023 04:30 8,7 C 7,8 C 5,0 C 91 % 1025,4 hPa 0,0 l/m 0 min 0 min 0 W/m 22,5 km/h (4 Bft) 97,83 %
03.02.2023 04:32 8,7 C 7,8 C 5,0 C 91 % 1025,4 hPa 0,0 l/m 0 min 0 min 0 W/m 16,1 km/h (3 Bft) 100,00 %
03.02.2023 04:34 8,7 C 7,8 C 5,0 C 91 % 1025,4 hPa 0,0 l/m 0 min 0 min 0 W/m 19,3 km/h (3 Bft) 97,87 %
03.02.2023 04:36 8,7 C 7,8 C 5,0 C 91 % 1025,4 hPa 0,0 l/m 0 min 0 min 0 W/m 16,1 km/h (3 Bft) 95,74 %
03.02.2023 04:38 8,7 C 7,8 C 5,0 C 91 % 1025,4 hPa 0,0 l/m 0 min 0 min 0 W/m 19,3 km/h (3 Bft) 97,87 %
03.02.2023 04:40 8,7 C 7,8 C 5,0 C 91 % 1025,4 hPa 0,0 l/m 0 min 0 min 0 W/m 6,4 km/h (2 Bft) 97,87 %
03.02.2023 04:42 8,7 C 7,8 C 5,0 C 91 % 1025,3 hPa 0,0 l/m 0 min 0 min 0 W/m 19,3 km/h (3 Bft) 95,65 %
03.02.2023 04:44 8,7 C 7,8 C 5,0 C 91 % 1025,3 hPa 0,0 l/m 0 min 0 min 0 W/m 29,0 km/h (5 Bft) 97,87 %
03.02.2023 04:46 8,7 C 7,8 C 5,0 C 91 % 1025,4 hPa 0,0 l/m 0 min 0 min 0 W/m 22,5 km/h (4 Bft) 97,87 %
03.02.2023 04:48 8,7 C 7,8 C 5,0 C 91 % 1025,2 hPa 0,0 l/m 0 min 0 min 0 W/m 16,1 km/h (3 Bft) 95,74 %
03.02.2023 04:50 8,7 C 7,8 C 5,0 C 90 % 1025,4 hPa 0,0 l/m 0 min 0 min 0 W/m 19,3 km/h (3 Bft) 95,74 %
03.02.2023 04:52 8,7 C 7,8 C 5,0 C 90 % 1025,4 hPa 0,0 l/m 0 min 0 min 0 W/m 12,9 km/h (3 Bft) 97,87 %
03.02.2023 04:54 8,7 C 7,8 C 5,0 C 90 % 1025,4 hPa 0,0 l/m 0 min 0 min 0 W/m 16,1 km/h (3 Bft) 97,87 %
03.02.2023 04:56 8,7 C 7,8 C 5,0 C 90 % 1025,2 hPa 0,0 l/m 0 min 0 min 0 W/m 22,5 km/h (4 Bft) 97,83 %
03.02.2023 04:58 8,7 C 7,8 C 5,0 C 90 % 1025,1 hPa 0,0 l/m 0 min 0 min 0 W/m 19,3 km/h (3 Bft) 95,74 %
03.02.2023 05:00 8,7 C 7,8 C 5,0 C 90 % 1025,2 hPa 0,0 l/m 0 min 0 min 0 W/m 16,1 km/h (3 Bft) 95,74 %
03.02.2023 05:02 8,7 C 7,8 C 5,0 C 90 % 1025,1 hPa 0,0 l/m 0 min 0 min 0 W/m 19,3 km/h (3 Bft) 97,87 %
03.02.2023 05:04 8,7 C 7,8 C 5,0 C 90 % 1025,2 hPa 0,0 l/m 0 min 0 min 0 W/m 19,3 km/h (3 Bft) 97,87 %
03.02.2023 05:06 8,7 C 7,8 C 5,0 C 90 % 1025,1 hPa 0,0 l/m 0 min 0 min 0 W/m 25,7 km/h (4 Bft) 97,87 %
03.02.2023 05:08 8,7 C 8,3 C 5,0 C 90 % 1025,1 hPa 0,0 l/m 0 min 0 min 0 W/m 29,0 km/h (5 Bft) 95,65 %
03.02.2023 05:10 8,7 C 7,8 C 5,0 C 90 % 1025,1 hPa 0,0 l/m 0 min 0 min 0 W/m 16,1 km/h (3 Bft) 95,74 %
03.02.2023 05:12 8,7 C 7,8 C 5,0 C 90 % 1025,3 hPa 0,0 l/m 0 min 0 min 0 W/m 16,1 km/h (3 Bft) 93,62 %
03.02.2023 05:14 8,7 C 7,8 C 5,0 C 90 % 1025,2 hPa 0,0 l/m 0 min 0 min 0 W/m 12,9 km/h (3 Bft) 93,62 %
03.02.2023 05:16 8,7 C 7,8 C 5,0 C 90 % 1025,2 hPa 0,0 l/m 0 min 0 min 0 W/m 16,1 km/h (3 Bft) 93,62 %
03.02.2023 05:18 8,7 C 7,8 C 5,0 C 90 % 1025,2 hPa 0,0 l/m 0 min 0 min 0 W/m 19,3 km/h (3 Bft) 95,74 %
03.02.2023 05:20 8,7 C 7,8 C 5,0 C 90 % 1025,2 hPa 0,0 l/m 0 min 0 min 0 W/m 16,1 km/h (3 Bft) 93,62 %
03.02.2023 05:22 8,7 C 7,8 C 5,0 C 90 % 1025,2 hPa 0,0 l/m 0 min 0 min 0 W/m 16,1 km/h (3 Bft) 95,65 %
03.02.2023 05:24 8,7 C 7,8 C 5,0 C 90 % 1025,2 hPa 0,0 l/m 0 min 0 min 0 W/m 25,7 km/h (4 Bft) 97,87 %
03.02.2023 05:26 8,7 C 7,8 C 5,0 C 90 % 1025,1 hPa 0,0 l/m 0 min 0 min 0 W/m 16,1 km/h (3 Bft) 97,87 %
03.02.2023 05:28 8,7 C 7,8 C 5,0 C 90 % 1025,1 hPa 0,0 l/m 0 min 0 min 0 W/m 16,1 km/h (3 Bft) 95,74 %
03.02.2023 05:30 8,7 C 7,8 C 5,0 C 90 % 1025,1 hPa 0,0 l/m 0 min 0 min 0 W/m 12,9 km/h (3 Bft) 95,74 %
03.02.2023 05:32 8,7 C 7,8 C 5,0 C 90 % 1025,2 hPa 0,0 l/m 0 min 0 min 0 W/m 19,3 km/h (3 Bft) 93,62 %
03.02.2023 05:34 8,7 C 7,8 C 5,0 C 90 % 1025,3 hPa 0,0 l/m 0 min 0 min 0 W/m 12,9 km/h (3 Bft) 97,87 %
03.02.2023 05:36 8,7 C 7,8 C 5,0 C 90 % 1025,3 hPa 0,0 l/m 0 min 0 min 0 W/m 16,1 km/h (3 Bft) 95,65 %
03.02.2023 05:38 8,7 C 7,8 C 5,0 C 90 % 1025,3 hPa 0,0 l/m 0 min 0 min 0 W/m 12,9 km/h (3 Bft) 95,74 %
03.02.2023 05:40 8,7 C 7,8 C 5,0 C 90 % 1025,4 hPa 0,0 l/m 0 min 0 min 0 W/m 16,1 km/h (3 Bft) 95,74 %
03.02.2023 05:42 8,7 C 8,3 C 5,0 C 90 % 1025,3 hPa 0,0 l/m 0 min 0 min 0 W/m 22,5 km/h (4 Bft) 97,87 %
03.02.2023 05:44 8,8 C 7,8 C 5,0 C 90 % 1025,3 hPa 0,0 l/m 0 min 0 min 0 W/m 19,3 km/h (3 Bft) 100,00 %
03.02.2023 05:46 8,8 C 8,3 C 5,0 C 90 % 1025,3 hPa 0,0 l/m 0 min 0 min 0 W/m 19,3 km/h (3 Bft) 97,87 %
03.02.2023 05:48 8,8 C 7,8 C 5,0 C 89 % 1025,2 hPa 0,0 l/m 0 min 0 min 0 W/m 12,9 km/h (3 Bft) 100,00 %
03.02.2023 05:50 8,8 C 7,8 C 5,0 C 89 % 1025,1 hPa 0,0 l/m 0 min 0 min 0 W/m 12,9 km/h (3 Bft) 97,87 %
03.02.2023 05:52 8,8 C 7,8 C 5,0 C 89 % 1025,2 hPa 0,0 l/m 0 min 0 min 0 W/m 22,5 km/h (4 Bft) 95,74 %
03.02.2023 05:54 8,8 C 8,3 C 5,0 C 89 % 1025,1 hPa 0,0 l/m 0 min 0 min 0 W/m 12,9 km/h (3 Bft) 97,87 %
03.02.2023 05:56 8,8 C 8,3 C 5,0 C 89 % 1025,1 hPa 0,0 l/m 0 min 0 min 0 W/m 19,3 km/h (3 Bft) 93,62 %
03.02.2023 05:58 8,8 C 8,3 C 5,0 C 89 % 1025,1 hPa 0,0 l/m 0 min 0 min 0 W/m 16,1 km/h (3 Bft) 97,87 %
03.02.2023 06:00 8,8 C 7,8 C 5,0 C 89 % 1025,0 hPa 0,0 l/m 0 min 0 min 0 W/m 16,1 km/h (3 Bft) 97,87 %
03.02.2023 06:02 8,8 C 7,8 C 5,0 C 89 % 1025,0 hPa 0,0 l/m 0 min 0 min 0 W/m 19,3 km/h (3 Bft) 97,83 %
03.02.2023 06:04 8,8 C 8,3 C 5,0 C 89 % 1025,1 hPa 0,0 l/m 0 min 0 min 0 W/m 16,1 km/h (3 Bft) 97,87 %
03.02.2023 06:07 8,8 C 8,3 C 5,0 C 89 % 1025,1 hPa 0,0 l/m 0 min 0 min 0 W/m 16,1 km/h (3 Bft) 97,22 %
03.02.2023 06:08 8,8 C 8,3 C 5,0 C 89 % 1025,1 hPa 0,0 l/m 0 min 0 min 0 W/m 19,3 km/h (3 Bft) 100,00 %
03.02.2023 06:10 8,8 C 8,3 C 5,0 C 89 % 1025,0 hPa 0,0 l/m 0 min 0 min 0 W/m 19,3 km/h (3 Bft) 97,87 %
03.02.2023 06:12 8,8 C 8,3 C 5,0 C 89 % 1025,0 hPa 0,0 l/m 0 min 0 min 0 W/m 16,1 km/h (3 Bft) 93,62 %
03.02.2023 06:14 8,8 C 8,3 C 5,0 C 89 % 1025,0 hPa 0,0 l/m 0 min 0 min 0 W/m 19,3 km/h (3 Bft) 97,87 %
03.02.2023 06:16 8,8 C 8,3 C 5,0 C 89 % 1025,0 hPa 0,0 l/m 0 min 0 min 0 W/m 16,1 km/h (3 Bft) 97,87 %
03.02.2023 06:18 8,8 C 8,3 C 5,0 C 89 % 1025,0 hPa 0,0 l/m 0 min 0 min 0 W/m 22,5 km/h (4 Bft) 97,83 %
03.02.2023 06:20 8,8 C 8,3 C 5,0 C 89 % 1025,0 hPa 0,0 l/m 0 min 0 min 0 W/m 22,5 km/h (4 Bft) 97,87 %
03.02.2023 06:22 8,8 C 8,3 C 5,0 C 89 % 1024,9 hPa 0,0 l/m 0 min 0 min 0 W/m 16,1 km/h (3 Bft) 97,87 %
03.02.2023 06:24 8,8 C 8,3 C 5,0 C 89 % 1024,8 hPa 0,0 l/m 0 min 0 min 0 W/m 16,1 km/h (3 Bft) 97,87 %
03.02.2023 06:26 8,8 C 8,3 C 5,0 C 89 % 1024,8 hPa 0,0 l/m 0 min 0 min 0 W/m 25,7 km/h (4 Bft) 97,87 %
03.02.2023 06:28 8,8 C 8,3 C 5,0 C 89 % 1024,8 hPa 0,0 l/m 0 min 0 min 0 W/m 32,2 km/h (5 Bft) 91,49 %
03.02.2023 06:30 8,8 C 8,3 C 5,0 C 89 % 1024,7 hPa 0,0 l/m 0 min 0 min 0 W/m 19,3 km/h (3 Bft) 97,83 %
03.02.2023 06:32 8,8 C 8,3 C 5,0 C 89 % 1024,8 hPa 0,0 l/m 0 min 0 min 0 W/m 16,1 km/h (3 Bft) 97,87 %
03.02.2023 06:34 8,8 C 8,3 C 5,0 C 89 % 1024,8 hPa 0,0 l/m 0 min 0 min 0 W/m 16,1 km/h (3 Bft) 100,00 %
03.02.2023 06:36 8,8 C 8,3 C 5,0 C 89 % 1024,9 hPa 0,0 l/m 0 min 0 min 0 W/m 29,0 km/h (5 Bft) 100,00 %
03.02.2023 06:38 8,8 C 8,3 C 5,0 C 89 % 1024,9 hPa 0,0 l/m 0 min 0 min 0 W/m 16,1 km/h (3 Bft) 100,00 %
03.02.2023 06:40 8,8 C 8,3 C 5,0 C 89 % 1024,8 hPa 0,0 l/m 0 min 0 min 0 W/m 19,3 km/h (3 Bft) 100,00 %
03.02.2023 06:42 8,8 C 8,3 C 5,0 C 89 % 1024,9 hPa 0,0 l/m 0 min 0 min 0 W/m 22,5 km/h (4 Bft) 100,00 %
03.02.2023 06:44 8,8 C 8,3 C 5,0 C 89 % 1025,1 hPa 0,0 l/m 0 min 0 min 0 W/m 19,3 km/h (3 Bft) 100,00 %
03.02.2023 06:46 8,8 C 8,3 C 5,0 C 89 % 1025,3 hPa 0,0 l/m 0 min 0 min 0 W/m 22,5 km/h (4 Bft) 97,87 %
03.02.2023 06:48 8,8 C 8,3 C 5,0 C 89 % 1025,1 hPa 0,0 l/m 0 min 0 min 0 W/m 22,5 km/h (4 Bft) 100,00 %
03.02.2023 06:50 8,8 C 8,3 C 5,0 C 89 % 1025,1 hPa 0,0 l/m 0 min 0 min 0 W/m 25,7 km/h (4 Bft) 100,00 %
03.02.2023 06:52 8,9 C 8,3 C 5,0 C 89 % 1025,1 hPa 0,0 l/m 0 min 0 min 0 W/m 16,1 km/h (3 Bft) 97,87 %
03.02.2023 06:54 8,9 C 8,3 C 5,0 C 89 % 1025,2 hPa 0,0 l/m 0 min 0 min 0 W/m 19,3 km/h (3 Bft) 100,00 %
03.02.2023 06:56 8,9 C 8,3 C 5,0 C 89 % 1025,3 hPa 0,0 l/m 0 min 0 min 0 W/m 12,9 km/h (3 Bft) 97,87 %
03.02.2023 06:58 8,9 C 8,3 C 5,0 C 89 % 1025,1 hPa 0,0 l/m 0 min 0 min 0 W/m 25,7 km/h (4 Bft) 100,00 %
03.02.2023 07:00 8,9 C 8,3 C 5,0 C 89 % 1025,1 hPa 0,0 l/m 0 min 0 min 0 W/m 16,1 km/h (3 Bft) 97,87 %
03.02.2023 07:02 8,9 C 8,3 C 5,0 C 88 % 1025,2 hPa 0,0 l/m 0 min 0 min 0 W/m 22,5 km/h (4 Bft) 100,00 %
03.02.2023 07:04 8,9 C 8,3 C 5,0 C 88 % 1025,1 hPa 0,0 l/m 0 min 0 min 0 W/m 16,1 km/h (3 Bft) 100,00 %
03.02.2023 07:06 8,9 C 8,3 C 5,0 C 88 % 1025,2 hPa 0,0 l/m 0 min 0 min 0 W/m 25,7 km/h (4 Bft) 98,31 %
03.02.2023 07:08 8,9 C 8,3 C 5,0 C 88 % 1025,2 hPa 0,0 l/m 0 min 0 min 0 W/m 19,3 km/h (3 Bft) 100,00 %
03.02.2023 07:10 8,9 C 8,3 C 5,0 C 88 % 1025,2 hPa 0,0 l/m 0 min 0 min 0 W/m 29,0 km/h (5 Bft) 97,83 %
03.02.2023 07:12 8,9 C 8,3 C 5,0 C 88 % 1025,3 hPa 0,0 l/m 0 min 0 min 0 W/m 19,3 km/h (3 Bft) 97,87 %
03.02.2023 07:14 8,9 C 8,3 C 5,0 C 88 % 1025,2 hPa 0,0 l/m 0 min 0 min 0 W/m 22,5 km/h (4 Bft) 97,87 %
03.02.2023 07:16 8,9 C 8,3 C 5,0 C 88 % 1025,2 hPa 0,0 l/m 0 min 0 min 0 W/m 12,9 km/h (3 Bft) 97,87 %
03.02.2023 07:18 8,9 C 8,3 C 5,0 C 88 % 1025,1 hPa 0,0 l/m 0 min 0 min 0 W/m 16,1 km/h (3 Bft) 97,87 %
03.02.2023 07:20 8,9 C 8,3 C 5,0 C 88 % 1025,1 hPa 0,0 l/m 0 min 0 min 0 W/m 22,5 km/h (4 Bft) 97,87 %
03.02.2023 07:22 8,9 C 8,3 C 5,0 C 88 % 1025,1 hPa 0,0 l/m 0 min 0 min 0 W/m 16,1 km/h (3 Bft) 97,87 %
03.02.2023 07:24 8,9 C 8,3 C 5,0 C 88 % 1025,1 hPa 0,0 l/m 0 min 0 min 0 W/m 19,3 km/h (3 Bft) 97,87 %
03.02.2023 07:26 8,9 C 8,3 C 5,0 C 88 % 1025,1 hPa 0,0 l/m 0 min 0 min 0 W/m 19,3 km/h (3 Bft) 95,65 %
03.02.2023 07:28 8,9 C 8,3 C 5,0 C 88 % 1025,2 hPa 0,0 l/m 0 min 0 min 0 W/m 12,9 km/h (3 Bft) 95,74 %
03.02.2023 07:30 8,9 C 8,3 C 5,0 C 88 % 1025,2 hPa 0,0 l/m 0 min 0 min 0 W/m 19,3 km/h (3 Bft) 93,62 %
03.02.2023 07:32 8,9 C 8,3 C 5,0 C 88 % 1025,2 hPa 0,0 l/m 0 min 0 min 0 W/m 22,5 km/h (4 Bft) 95,74 %
03.02.2023 07:34 8,9 C 8,3 C 5,0 C 88 % 1025,2 hPa 0,0 l/m 0 min 0 min 0 W/m 22,5 km/h (4 Bft) 95,74 %
03.02.2023 07:36 8,9 C 8,3 C 5,0 C 88 % 1025,2 hPa 0,0 l/m 0 min 0 min 0 W/m 19,3 km/h (3 Bft) 95,74 %
03.02.2023 07:38 8,9 C 8,3 C 5,0 C 88 % 1025,0 hPa 0,0 l/m 0 min 0 min 0 W/m 22,5 km/h (4 Bft) 93,48 %
03.02.2023 07:40 8,9 C 8,3 C 5,0 C 88 % 1025,1 hPa 0,0 l/m 0 min 0 min 0 W/m 19,3 km/h (3 Bft) 95,74 %
03.02.2023 07:42 8,9 C 8,3 C 5,0 C 88 % 1025,0 hPa 0,0 l/m 0 min 0 min 0 W/m 19,3 km/h (3 Bft) 95,74 %
03.02.2023 07:44 8,9 C 8,3 C 5,0 C 88 % 1025,1 hPa 0,0 l/m 0 min 0 min 0 W/m 25,7 km/h (4 Bft) 93,62 %
03.02.2023 07:46 8,9 C 8,3 C 5,0 C 88 % 1025,1 hPa 0,0 l/m 0 min 0 min 0 W/m 35,4 km/h (5 Bft) 95,74 %
03.02.2023 07:48 8,9 C 8,3 C 5,0 C 88 % 1025,0 hPa 0,0 l/m 0 min 0 min 0 W/m 19,3 km/h (3 Bft) 93,62 %
03.02.2023 07:50 8,9 C 8,3 C 5,0 C 88 % 1025,0 hPa 0,0 l/m 0 min 0 min 0 W/m 22,5 km/h (4 Bft) 82,98 %
03.02.2023 07:52 8,9 C 8,3 C 5,0 C 88 % 1025,1 hPa 0,0 l/m 0 min 0 min 0 W/m 22,5 km/h (4 Bft) 84,78 %
03.02.2023 07:54 8,9 C 8,3 C 5,0 C 88 % 1025,0 hPa 0,0 l/m 0 min 0 min 0 W/m 16,1 km/h (3 Bft) 91,49 %
03.02.2023 07:56 8,9 C 8,3 C 5,0 C 88 % 1025,1 hPa 0,0 l/m 0 min 0 min 0 W/m 22,5 km/h (4 Bft) 97,87 %
03.02.2023 07:58 8,9 C 8,3 C 5,0 C 88 % 1025,1 hPa 0,0 l/m 0 min 0 min 0 W/m 16,1 km/h (3 Bft) 91,49 %
03.02.2023 08:00 8,9 C 8,3 C 5,0 C 88 % 1025,1 hPa 0,0 l/m 0 min 0 min 0 W/m 12,9 km/h (3 Bft) 95,74 %
03.02.2023 08:02 8,9 C 8,3 C 5,0 C 88 % 1025,1 hPa 0,0 l/m 0 min 0 min 0 W/m 22,5 km/h (4 Bft) 95,74 %
03.02.2023 08:04 8,9 C 8,3 C 5,0 C 88 % 1025,1 hPa 0,0 l/m 0 min 0 min 0 W/m 16,1 km/h (3 Bft) 95,65 %
03.02.2023 08:06 8,9 C 8,3 C 5,0 C 89 % 1024,9 hPa 0,0 l/m 0 min 0 min 0 W/m 22,5 km/h (4 Bft) 94,92 %
03.02.2023 08:08 8,9 C 8,3 C 5,0 C 88 % 1025,0 hPa 0,0 l/m 0 min 0 min 0 W/m 19,3 km/h (3 Bft) 97,14 %
03.02.2023 08:10 8,9 C 8,3 C 5,0 C 88 % 1025,1 hPa 0,0 l/m 0 min 0 min 0 W/m 25,7 km/h (4 Bft) 97,87 %
03.02.2023 08:12 8,9 C 8,3 C 5,0 C 89 % 1025,1 hPa 0,0 l/m 0 min 0 min 0 W/m 22,5 km/h (4 Bft) 97,87 %
03.02.2023 08:14 8,9 C 8,3 C 5,0 C 89 % 1025,1 hPa 0,0 l/m 0 min 0 min 0 W/m 19,3 km/h (3 Bft) 95,74 %
03.02.2023 08:16 8,9 C 8,3 C 5,0 C 89 % 1025,1 hPa 0,0 l/m 0 min 0 min 0 W/m 22,5 km/h (4 Bft) 97,87 %
03.02.2023 08:18 8,9 C 8,3 C 5,0 C 89 % 1025,2 hPa 0,0 l/m 0 min 0 min 0 W/m 16,1 km/h (3 Bft) 100,00 %
03.02.2023 08:20 8,9 C 8,3 C 5,0 C 89 % 1025,2 hPa 0,0 l/m 0 min 0 min 0 W/m 16,1 km/h (3 Bft) 97,87 %
03.02.2023 08:22 8,8 C 8,3 C 5,0 C 88 % 1025,2 hPa 0,0 l/m 0 min 0 min 0 W/m 19,3 km/h (3 Bft) 97,87 %
03.02.2023 08:24 8,8 C 8,3 C 5,0 C 89 % 1025,2 hPa 0,0 l/m 0 min 0 min 0 W/m 22,5 km/h (4 Bft) 97,87 %
03.02.2023 08:26 8,8 C 8,3 C 5,0 C 89 % 1025,1 hPa 0,0 l/m 0 min 0 min 2 W/m 22,5 km/h (4 Bft) 100,00 %
03.02.2023 08:28 8,8 C 8,3 C 5,0 C 89 % 1025,1 hPa 0,0 l/m 0 min 0 min 5 W/m 16,1 km/h (3 Bft) 97,87 %
03.02.2023 08:30 8,8 C 8,3 C 5,0 C 89 % 1025,2 hPa 0,0 l/m 0 min 0 min 5 W/m 22,5 km/h (4 Bft) 95,74 %
03.02.2023 08:32 8,8 C 8,3 C 5,0 C 89 % 1025,2 hPa 0,0 l/m 0 min 0 min 5 W/m 16,1 km/h (3 Bft) 97,83 %
03.02.2023 08:34 8,9 C 8,3 C 5,0 C 89 % 1025,2 hPa 0,0 l/m 0 min 0 min 5 W/m 19,3 km/h (3 Bft) 97,87 %
03.02.2023 08:36 8,9 C 8,3 C 5,0 C 89 % 1025,2 hPa 0,0 l/m 0 min 0 min 5 W/m 32,2 km/h (5 Bft) 95,74 %
03.02.2023 08:38 8,9 C 8,3 C 5,0 C 89 % 1025,2 hPa 0,0 l/m 0 min 0 min 6 W/m 16,1 km/h (3 Bft) 97,87 %
03.02.2023 08:40 8,9 C 8,3 C 5,0 C 89 % 1025,2 hPa 0,0 l/m 0 min 0 min 7 W/m 19,3 km/h (3 Bft) 97,87 %
03.02.2023 08:42 8,9 C 8,3 C 5,0 C 89 % 1025,2 hPa 0,0 l/m 0 min 0 min 7 W/m 16,1 km/h (3 Bft) 95,74 %
03.02.2023 08:44 8,9 C 8,3 C 5,0 C 89 % 1025,1 hPa 0,0 l/m 0 min 0 min 8 W/m 19,3 km/h (3 Bft) 97,83 %
03.02.2023 08:46 8,9 C 8,3 C 5,0 C 89 % 1025,1 hPa 0,0 l/m 0 min 0 min 9 W/m 19,3 km/h (3 Bft) 97,87 %
03.02.2023 08:48 8,9 C 8,3 C 5,0 C 89 % 1025,2 hPa 0,0 l/m 0 min 0 min 9 W/m 19,3 km/h (3 Bft) 97,87 %
03.02.2023 08:50 8,9 C 8,3 C 5,0 C 89 % 1025,2 hPa 0,0 l/m 0 min 0 min 9 W/m 22,5 km/h (4 Bft) 97,87 %
03.02.2023 08:52 8,9 C 8,3 C 5,0 C 89 % 1025,2 hPa 0,0 l/m 0 min 0 min 9 W/m 19,3 km/h (3 Bft) 97,87 %
03.02.2023 08:54 8,9 C 8,3 C 5,0 C 89 % 1025,1 hPa 0,0 l/m 0 min 0 min 12 W/m 22,5 km/h (4 Bft) 97,87 %
03.02.2023 08:56 8,9 C 8,3 C 5,0 C 89 % 1025,1 hPa 0,0 l/m 0 min 0 min 12 W/m 16,1 km/h (3 Bft) 97,83 %
03.02.2023 08:58 8,9 C 8,3 C 5,0 C 88 % 1025,1 hPa 0,0 l/m 0 min 0 min 12 W/m 16,1 km/h (3 Bft) 93,62 %
03.02.2023 09:00 9,0 C 8,3 C 5,0 C 89 % 1025,2 hPa 0,0 l/m 0 min 0 min 13 W/m 19,3 km/h (3 Bft) 97,87 %
03.02.2023 09:02 9,0 C 8,3 C 5,6 C 88 % 1025,3 hPa 0,0 l/m 0 min 0 min 12 W/m 25,7 km/h (4 Bft) 97,87 %
03.02.2023 09:04 9,0 C 8,3 C 5,0 C 88 % 1025,2 hPa 0,0 l/m 0 min 0 min 12 W/m 16,1 km/h (3 Bft) 95,74 %
03.02.2023 09:06 9,0 C 8,3 C 5,0 C 88 % 1025,3 hPa 0,0 l/m 0 min 0 min 12 W/m 16,1 km/h (3 Bft) 98,28 %
03.02.2023 09:08 9,0 C 8,3 C 5,0 C 88 % 1025,4 hPa 0,0 l/m 0 min 0 min 14 W/m 22,5 km/h (4 Bft) 97,22 %
03.02.2023 09:10 9,0 C 8,3 C 5,0 C 88 % 1025,4 hPa 0,0 l/m 0 min 0 min 12 W/m 22,5 km/h (4 Bft) 95,65 %
03.02.2023 09:12 9,1 C 8,3 C 5,0 C 88 % 1025,3 hPa 0,0 l/m 0 min 0 min 13 W/m 16,1 km/h (3 Bft) 97,87 %
03.02.2023 09:14 9,1 C 8,3 C 5,0 C 88 % 1025,3 hPa 0,0 l/m 0 min 0 min 13 W/m 29,0 km/h (5 Bft) 97,87 %
03.02.2023 09:16 9,1 C 8,3 C 5,0 C 88 % 1025,4 hPa 0,0 l/m 0 min 0 min 12 W/m 19,3 km/h (3 Bft) 97,87 %
03.02.2023 09:18 9,1 C 8,3 C 5,0 C 88 % 1025,5 hPa 0,0 l/m 0 min 0 min 14 W/m 22,5 km/h (4 Bft) 95,74 %
03.02.2023 09:20 9,1 C 8,3 C 5,6 C 88 % 1025,6 hPa 0,0 l/m 0 min 0 min 14 W/m 22,5 km/h (4 Bft) 97,87 %
03.02.2023 09:22 9,1 C 8,3 C 5,0 C 89 % 1025,6 hPa 0,0 l/m 0 min 0 min 14 W/m 19,3 km/h (3 Bft) 97,87 %
03.02.2023 09:24 9,1 C 8,3 C 5,0 C 89 % 1025,6 hPa 0,0 l/m 0 min 0 min 12 W/m 25,7 km/h (4 Bft) 97,83 %
03.02.2023 09:26 9,1 C 8,3 C 5,0 C 89 % 1025,6 hPa 0,0 l/m 0 min 0 min 12 W/m 16,1 km/h (3 Bft) 97,87 %
03.02.2023 09:28 9,1 C 8,3 C 5,0 C 89 % 1025,6 hPa 0,0 l/m 0 min 0 min 12 W/m 22,5 km/h (4 Bft) 97,87 %
03.02.2023 09:30 9,1 C 8,3 C 5,0 C 89 % 1025,6 hPa 0,0 l/m 0 min 0 min 12 W/m 22,5 km/h (4 Bft) 97,87 %
03.02.2023 09:32 9,1 C 8,3 C 5,0 C 89 % 1025,5 hPa 0,0 l/m 0 min 0 min 14 W/m 16,1 km/h (3 Bft) 97,87 %
03.02.2023 09:34 9,1 C 8,3 C 5,0 C 89 % 1025,5 hPa 0,0 l/m 0 min 0 min 17 W/m 29,0 km/h (5 Bft) 97,87 %
03.02.2023 09:36 9,1 C 8,3 C 5,6 C 89 % 1025,5 hPa 0,0 l/m 0 min 0 min 18 W/m 22,5 km/h (4 Bft) 93,62 %
03.02.2023 09:38 9,1 C 8,3 C 5,6 C 89 % 1025,5 hPa 0,0 l/m 0 min 0 min 21 W/m 19,3 km/h (3 Bft) 100,00 %
03.02.2023 09:40 9,1 C 8,3 C 5,6 C 89 % 1025,5 hPa 0,0 l/m 0 min 0 min 24 W/m 16,1 km/h (3 Bft) 97,87 %
03.02.2023 09:42 9,1 C 8,3 C 5,6 C 89 % 1025,6 hPa 0,0 l/m 0 min 0 min 20 W/m 22,5 km/h (4 Bft) 97,87 %
03.02.2023 09:44 9,1 C 8,3 C 5,0 C 89 % 1025,5 hPa 0,0 l/m 0 min 0 min 18 W/m 35,4 km/h (5 Bft) 100,00 %
03.02.2023 09:46 9,1 C 8,3 C 5,0 C 89 % 1025,5 hPa 0,0 l/m 0 min 0 min 16 W/m 16,1 km/h (3 Bft) 100,00 %
03.02.2023 09:48 9,1 C 8,3 C 5,0 C 89 % 1025,5 hPa 0,0 l/m 0 min 0 min 16 W/m 22,5 km/h (4 Bft) 100,00 %
03.02.2023 09:50 9,1 C 8,3 C 5,0 C 89 % 1025,5 hPa 0,0 l/m 0 min 0 min 16 W/m 22,5 km/h (4 Bft) 100,00 %
03.02.2023 09:52 9,0 C 8,3 C 5,0 C 89 % 1025,6 hPa 0,0 l/m 0 min 0 min 16 W/m 25,7 km/h (4 Bft) 100,00 %
03.02.2023 09:54 9,0 C 8,3 C 5,0 C 89 % 1025,7 hPa 0,0 l/m 0 min 0 min 16 W/m 29,0 km/h (5 Bft) 97,87 %
03.02.2023 09:56 8,9 C 8,3 C 5,0 C 90 % 1025,7 hPa 0,0 l/m 0 min 0 min 16 W/m 29,0 km/h (5 Bft) 100,00 %
03.02.2023 09:58 8,9 C 8,3 C 5,0 C 90 % 1025,6 hPa 0,0 l/m 0 min 0 min 18 W/m 19,3 km/h (3 Bft) 100,00 %
03.02.2023 10:00 8,9 C 7,8 C 5,0 C 90 % 1025,6 hPa 0,0 l/m 0 min 0 min 17 W/m 19,3 km/h (3 Bft) 97,87 %
03.02.2023 10:02 8,8 C 7,8 C 5,0 C 90 % 1025,7 hPa 0,0 l/m 0 min 0 min 13 W/m 25,7 km/h (4 Bft) 97,87 %
03.02.2023 10:04 8,8 C 7,8 C 5,0 C 90 % 1025,7 hPa 0,0 l/m 0 min 0 min 14 W/m 29,0 km/h (5 Bft) 100,00 %
03.02.2023 10:06 8,8 C 7,8 C 5,0 C 91 % 1025,8 hPa 0,0 l/m 0 min 0 min 14 W/m 22,5 km/h (4 Bft) 98,31 %
03.02.2023 10:08 8,8 C 7,8 C 5,0 C 91 % 1025,9 hPa 0,0 l/m 0 min 0 min 15 W/m 22,5 km/h (4 Bft) 97,14 %
03.02.2023 10:10 8,8 C 7,8 C 5,0 C 91 % 1025,8 hPa 0,0 l/m 0 min 0 min 16 W/m 19,3 km/h (3 Bft) 100,00 %
03.02.2023 10:12 8,7 C 7,8 C 5,0 C 91 % 1025,7 hPa 0,0 l/m 0 min 0 min 16 W/m 12,9 km/h (3 Bft) 100,00 %
03.02.2023 10:14 8,7 C 7,8 C 5,0 C 92 % 1025,7 hPa 0,0 l/m 0 min 0 min 16 W/m 25,7 km/h (4 Bft) 100,00 %
03.02.2023 10:16 8,7 C 7,8 C 5,0 C 92 % 1025,8 hPa 0,0 l/m 0 min 0 min 18 W/m 22,5 km/h (4 Bft) 97,83 %
03.02.2023 10:18 8,7 C 7,8 C 5,0 C 92 % 1025,8 hPa 0,0 l/m 0 min 0 min 18 W/m 29,0 km/h (5 Bft) 97,87 %
03.02.2023 10:20 8,7 C 7,8 C 5,0 C 92 % 1025,8 hPa 0,0 l/m 0 min 0 min 20 W/m 19,3 km/h (3 Bft) 97,87 %
03.02.2023 10:22 8,6 C 7,8 C 5,0 C 92 % 1025,8 hPa 0,0 l/m 0 min 0 min 20 W/m 19,3 km/h (3 Bft) 95,74 %
03.02.2023 10:24 8,6 C 7,8 C 5,0 C 92 % 1025,8 hPa 0,0 l/m 0 min 0 min 20 W/m 16,1 km/h (3 Bft) 97,87 %
03.02.2023 10:26 8,6 C 7,8 C 5,0 C 92 % 1025,7 hPa 0,0 l/m 0 min 0 min 20 W/m 22,5 km/h (4 Bft) 97,87 %
03.02.2023 10:28 8,6 C 7,8 C 5,0 C 93 % 1025,8 hPa 0,0 l/m 0 min 0 min 21 W/m 19,3 km/h (3 Bft) 97,87 %
03.02.2023 10:30 8,6 C 7,8 C 5,0 C 93 % 1025,8 hPa 0,0 l/m 0 min 0 min 23 W/m 22,5 km/h (4 Bft) 95,65 %
03.02.2023 10:32 8,6 C 7,8 C 5,0 C 93 % 1025,9 hPa 0,0 l/m 0 min 0 min 23 W/m 19,3 km/h (3 Bft) 95,74 %
03.02.2023 10:34 8,6 C 7,8 C 5,0 C 93 % 1025,9 hPa 0,0 l/m 0 min 0 min 23 W/m 19,3 km/h (3 Bft) 97,87 %
03.02.2023 10:36 8,5 C 7,8 C 5,0 C 93 % 1025,9 hPa 0,0 l/m 0 min 0 min 23 W/m 19,3 km/h (3 Bft) 97,87 %
03.02.2023 10:38 8,5 C 7,8 C 5,0 C 93 % 1025,8 hPa 0,0 l/m 0 min 0 min 23 W/m 19,3 km/h (3 Bft) 97,87 %
03.02.2023 10:40 8,5 C 7,8 C 5,0 C 93 % 1025,8 hPa 0,0 l/m 0 min 0 min 22 W/m 22,5 km/h (4 Bft) 95,74 %
03.02.2023 10:42 8,5 C 7,8 C 5,0 C 93 % 1025,8 hPa 0,0 l/m 0 min 0 min 25 W/m 19,3 km/h (3 Bft) 97,83 %
03.02.2023 10:44 8,5 C 7,8 C 5,0 C 93 % 1025,8 hPa 0,0 l/m 0 min 0 min 26 W/m 22,5 km/h (4 Bft) 97,87 %
03.02.2023 10:46 8,5 C 7,8 C 5,0 C 93 % 1025,9 hPa 0,0 l/m 0 min 0 min 22 W/m 19,3 km/h (3 Bft) 97,87 %
03.02.2023 10:48 8,5 C 7,8 C 4,4 C 94 % 1025,9 hPa 0,0 l/m 0 min 0 min 19 W/m 16,1 km/h (3 Bft) 97,87 %
03.02.2023 10:50 8,5 C 7,8 C 4,4 C 94 % 1025,9 hPa 0,0 l/m 0 min 0 min 21 W/m 25,7 km/h (4 Bft) 95,74 %
03.02.2023 10:52 8,5 C 7,8 C 4,4 C 94 % 1025,8 hPa 0,0 l/m 0 min 0 min 21 W/m 16,1 km/h (3 Bft) 95,74 %
03.02.2023 10:54 8,4 C 7,8 C 4,4 C 94 % 1025,8 hPa 0,0 l/m 0 min 0 min 23 W/m 16,1 km/h (3 Bft) 97,87 %
03.02.2023 10:56 8,4 C 7,8 C 4,4 C 94 % 1025,9 hPa 0,0 l/m 0 min 0 min 25 W/m 25,7 km/h (4 Bft) 95,65 %
03.02.2023 10:58 8,4 C 7,8 C 4,4 C 94 % 1025,9 hPa 0,0 l/m 0 min 0 min 27 W/m 9,7 km/h (2 Bft) 93,62 %
03.02.2023 11:00 8,4 C 7,8 C 4,4 C 94 % 1025,9 hPa 0,0 l/m 0 min 0 min 26 W/m 16,1 km/h (3 Bft) 93,62 %
03.02.2023 11:02 8,4 C 7,8 C 4,4 C 94 % 1025,9 hPa 0,0 l/m 0 min 0 min 27 W/m 22,5 km/h (4 Bft) 97,87 %
03.02.2023 11:04 8,4 C 7,8 C 4,4 C 94 % 1026,0 hPa 0,0 l/m 0 min 0 min 26 W/m 16,1 km/h (3 Bft) 97,87 %
03.02.2023 11:06 8,4 C 7,8 C 4,4 C 94 % 1026,0 hPa 0,0 l/m 0 min 0 min 28 W/m 19,3 km/h (3 Bft) 98,28 %
03.02.2023 11:08 8,4 C 7,8 C 4,4 C 94 % 1026,0 hPa 0,0 l/m 0 min 2 min 27 W/m 19,3 km/h (3 Bft) 97,22 %
03.02.2023 11:10 8,4 C 7,8 C 4,4 C 94 % 1026,0 hPa 0,0 l/m 0 min 2 min 28 W/m 25,7 km/h (4 Bft) 97,83 %
03.02.2023 11:12 8,4 C 7,8 C 4,4 C 94 % 1026,0 hPa 0,0 l/m 0 min 0 min 27 W/m 16,1 km/h (3 Bft) 91,49 %
03.02.2023 11:14 8,4 C 7,8 C 4,4 C 95 % 1026,0 hPa 0,0 l/m 0 min 0 min 29 W/m 12,9 km/h (3 Bft) 95,74 %
03.02.2023 11:16 8,4 C 7,8 C 5,0 C 95 % 1026,1 hPa 0,0 l/m 0 min 0 min 29 W/m 12,9 km/h (3 Bft) 95,74 %
03.02.2023 11:18 8,4 C 7,8 C 5,0 C 95 % 1026,0 hPa 0,0 l/m 0 min 0 min 28 W/m 12,9 km/h (3 Bft) 95,74 %
03.02.2023 11:20 8,4 C 7,8 C 5,0 C 95 % 1026,0 hPa 0,0 l/m 0 min 0 min 30 W/m 22,5 km/h (4 Bft) 93,62 %
03.02.2023 11:22 8,4 C 7,8 C 5,0 C 95 % 1026,0 hPa 0,0 l/m 0 min 0 min 32 W/m 19,3 km/h (3 Bft) 95,65 %
03.02.2023 11:24 8,4 C 7,8 C 5,0 C 95 % 1025,9 hPa 0,0 l/m 0 min 0 min 31 W/m 22,5 km/h (4 Bft) 95,74 %
03.02.2023 11:26 8,4 C 7,8 C 5,0 C 95 % 1026,0 hPa 0,0 l/m 0 min 0 min 34 W/m 16,1 km/h (3 Bft) 95,74 %
03.02.2023 11:28 8,4 C 7,8 C 5,0 C 95 % 1025,9 hPa 0,0 l/m 0 min 0 min 33 W/m 19,3 km/h (3 Bft) 95,74 %
03.02.2023 11:30 8,4 C 7,8 C 5,0 C 95 % 1026,0 hPa 0,0 l/m 0 min 0 min 33 W/m 19,3 km/h (3 Bft) 93,62 %
03.02.2023 11:32 8,4 C 7,8 C 5,0 C 95 % 1025,9 hPa 0,0 l/m 0 min 0 min 35 W/m 19,3 km/h (3 Bft) 93,62 %
03.02.2023 11:34 8,4 C 7,8 C 5,0 C 95 % 1025,9 hPa 0,0 l/m 0 min 0 min 38 W/m 12,9 km/h (3 Bft) 95,74 %
03.02.2023 11:36 8,5 C 7,8 C 5,0 C 95 % 1026,0 hPa 0,0 l/m 0 min 0 min 42 W/m 25,7 km/h (4 Bft) 95,65 %
03.02.2023 11:38 8,5 C 7,8 C 5,0 C 95 % 1025,9 hPa 0,0 l/m 0 min 0 min 47 W/m 19,3 km/h (3 Bft) 95,74 %
03.02.2023 11:40 8,5 C 7,8 C 5,0 C 95 % 1025,9 hPa 0,0 l/m 0 min 0 min 54 W/m 19,3 km/h (3 Bft) 95,74 %
03.02.2023 11:42 8,5 C 8,3 C 5,0 C 95 % 1025,8 hPa 0,0 l/m 0 min 0 min 55 W/m 19,3 km/h (3 Bft) 93,62 %
03.02.2023 11:44 8,6 C 8,3 C 5,0 C 95 % 1025,8 hPa 0,0 l/m 0 min 0 min 53 W/m 12,9 km/h (3 Bft) 97,87 %
03.02.2023 11:46 8,6 C 8,3 C 5,0 C 95 % 1025,9 hPa 0,0 l/m 0 min 0 min 49 W/m 29,0 km/h (5 Bft) 97,87 %
03.02.2023 11:48 8,6 C 8,3 C 5,0 C 95 % 1025,7 hPa 0,0 l/m 0 min 0 min 50 W/m 16,1 km/h (3 Bft) 93,48 %
03.02.2023 11:50 8,6 C 8,3 C 5,0 C 95 % 1025,8 hPa 0,0 l/m 0 min 0 min 54 W/m 22,5 km/h (4 Bft) 97,87 %
03.02.2023 11:52 8,6 C 8,3 C 5,6 C 95 % 1025,8 hPa 0,0 l/m 0 min 0 min 69 W/m 19,3 km/h (3 Bft) 97,87 %
03.02.2023 11:54 8,6 C 8,3 C 5,6 C 95 % 1025,8 hPa 0,0 l/m 0 min 0 min 114 W/m 29,0 km/h (5 Bft) 100,00 %
03.02.2023 11:56 8,7 C 8,3 C 5,6 C 95 % 1025,8 hPa 0,0 l/m 0 min 0 min 122 W/m 19,3 km/h (3 Bft) 100,00 %
03.02.2023 11:58 8,7 C 8,3 C 5,6 C 95 % 1025,8 hPa 0,0 l/m 0 min 0 min 106 W/m 22,5 km/h (4 Bft) 100,00 %
03.02.2023 12:00 8,8 C 8,3 C 5,6 C 95 % 1025,8 hPa 0,0 l/m 0 min 0 min 95 W/m 16,1 km/h (3 Bft) 100,00 %
03.02.2023 12:02 8,8 C 8,3 C 5,6 C 95 % 1025,7 hPa 0,0 l/m 0 min 0 min 85 W/m 19,3 km/h (3 Bft) 97,83 %
03.02.2023 12:04 8,8 C 8,3 C 5,6 C 95 % 1025,8 hPa 0,0 l/m 0 min 0 min 76 W/m 19,3 km/h (3 Bft) 100,00 %
03.02.2023 12:07 8,8 C 8,3 C 5,6 C 95 % 1025,7 hPa 0,0 l/m 0 min 0 min 76 W/m 19,3 km/h (3 Bft) 98,59 %
03.02.2023 12:08 8,8 C 8,3 C 5,6 C 94 % 1025,7 hPa 0,0 l/m 0 min 0 min 69 W/m 12,9 km/h (3 Bft) 100,00 %
03.02.2023 12:10 8,8 C 8,3 C 5,6 C 94 % 1025,7 hPa 0,0 l/m 0 min 0 min 67 W/m 22,5 km/h (4 Bft) 100,00 %
03.02.2023 12:12 8,8 C 8,3 C 5,6 C 94 % 1025,8 hPa 0,0 l/m 0 min 0 min 71 W/m 16,1 km/h (3 Bft) 100,00 %
03.02.2023 12:14 8,8 C 8,3 C 5,6 C 94 % 1025,7 hPa 0,0 l/m 0 min 0 min 62 W/m 19,3 km/h (3 Bft) 100,00 %
03.02.2023 12:16 8,8 C 8,3 C 5,6 C 94 % 1025,9 hPa 0,0 l/m 0 min 0 min 59 W/m 16,1 km/h (3 Bft) 100,00 %
03.02.2023 12:18 8,8 C 8,3 C 5,6 C 94 % 1025,9 hPa 0,0 l/m 0 min 0 min 56 W/m 16,1 km/h (3 Bft) 100,00 %
03.02.2023 12:20 8,8 C 8,3 C 5,6 C 94 % 1025,9 hPa 0,0 l/m 0 min 0 min 51 W/m 12,9 km/h (3 Bft) 97,87 %
03.02.2023 12:22 8,9 C 8,3 C 5,6 C 94 % 1025,8 hPa 0,0 l/m 0 min 0 min 51 W/m 16,1 km/h (3 Bft) 100,00 %
03.02.2023 12:24 8,9 C 8,3 C 5,6 C 94 % 1025,9 hPa 0,0 l/m 0 min 0 min 54 W/m 19,3 km/h (3 Bft) 100,00 %
03.02.2023 12:26 8,9 C 8,3 C 5,6 C 94 % 1025,9 hPa 0,0 l/m 0 min 0 min 51 W/m 19,3 km/h (3 Bft) 100,00 %
03.02.2023 12:28 8,9 C 8,3 C 5,6 C 94 % 1025,9 hPa 0,0 l/m 0 min 0 min 43 W/m 19,3 km/h (3 Bft) 100,00 %
03.02.2023 12:30 8,9 C 8,3 C 5,6 C 94 % 1026,0 hPa 0,0 l/m 0 min 0 min 38 W/m 19,3 km/h (3 Bft) 97,87 %
03.02.2023 12:32 9,0 C 8,9 C 5,6 C 94 % 1026,0 hPa 0,0 l/m 0 min 0 min 35 W/m 16,1 km/h (3 Bft) 100,00 %
03.02.2023 12:34 9,1 C 8,9 C 5,6 C 94 % 1025,9 hPa 0,0 l/m 0 min 0 min 34 W/m 12,9 km/h (3 Bft) 100,00 %
03.02.2023 12:36 9,1 C 8,9 C 6,1 C 94 % 1025,9 hPa 0,0 l/m 0 min 0 min 34 W/m 22,5 km/h (4 Bft) 100,00 %
03.02.2023 12:38 9,1 C 8,9 C 6,1 C 94 % 1026,0 hPa 0,0 l/m 0 min 0 min 29 W/m 16,1 km/h (3 Bft) 100,00 %
03.02.2023 12:40 9,2 C 8,9 C 6,1 C 94 % 1025,9 hPa 0,0 l/m 0 min 0 min 31 W/m 25,7 km/h (4 Bft) 100,00 %
03.02.2023 12:42 9,2 C 8,9 C 6,1 C 94 % 1026,0 hPa 0,0 l/m 0 min 0 min 29 W/m 19,3 km/h (3 Bft) 100,00 %
03.02.2023 12:44 9,2 C 8,9 C 6,1 C 94 % 1026,0 hPa 0,0 l/m 0 min 0 min 28 W/m 12,9 km/h (3 Bft) 100,00 %
03.02.2023 12:46 9,2 C 8,9 C 6,1 C 93 % 1026,1 hPa 0,0 l/m 0 min 0 min 31 W/m 12,9 km/h (3 Bft) 97,87 %
03.02.2023 12:48 9,3 C 8,9 C 6,1 C 93 % 1026,1 hPa 0,0 l/m 0 min 0 min 33 W/m 12,9 km/h (3 Bft) 100,00 %
03.02.2023 12:50 9,3 C 8,9 C 6,1 C 93 % 1026,1 hPa 0,0 l/m 0 min 0 min 35 W/m 25,7 km/h (4 Bft) 100,00 %
03.02.2023 12:52 9,3 C 8,9 C 6,1 C 93 % 1026,0 hPa 0,0 l/m 0 min 0 min 37 W/m 19,3 km/h (3 Bft) 100,00 %
03.02.2023 12:54 9,3 C 8,9 C 6,1 C 93 % 1026,0 hPa 0,0 l/m 0 min 0 min 35 W/m 16,1 km/h (3 Bft) 100,00 %
03.02.2023 12:56 9,3 C 8,9 C 6,1 C 93 % 1026,0 hPa 0,0 l/m 0 min 0 min 33 W/m 16,1 km/h (3 Bft) 100,00 %
03.02.2023 12:58 9,4 C 8,9 C 6,1 C 93 % 1026,0 hPa 0,0 l/m 0 min 0 min 32 W/m 22,5 km/h (4 Bft) 100,00 %
03.02.2023 13:00 9,4 C 9,4 C 6,1 C 93 % 1026,1 hPa 0,0 l/m 0 min 0 min 30 W/m 16,1 km/h (3 Bft) 97,87 %
03.02.2023 13:02 9,4 C 9,4 C 6,1 C 92 % 1026,1 hPa 0,0 l/m 0 min 0 min 28 W/m 19,3 km/h (3 Bft) 100,00 %
03.02.2023 13:04 9,5 C 9,4 C 6,1 C 92 % 1026,1 hPa 0,0 l/m 0 min 0 min 27 W/m 12,9 km/h (3 Bft) 97,87 %
03.02.2023 13:06 9,6 C 9,4 C 6,1 C 92 % 1026,0 hPa 0,0 l/m 0 min 0 min 27 W/m 22,5 km/h (4 Bft) 95,74 %
03.02.2023 13:08 9,6 C 9,4 C 6,1 C 92 % 1026,0 hPa 0,0 l/m 0 min 0 min 30 W/m 12,9 km/h (3 Bft) 93,62 %
03.02.2023 13:10 9,6 C 9,4 C 6,1 C 92 % 1026,0 hPa 0,0 l/m 0 min 0 min 29 W/m 25,7 km/h (4 Bft) 93,62 %
03.02.2023 13:12 9,6 C 9,4 C 6,1 C 92 % 1026,0 hPa 0,0 l/m 0 min 0 min 27 W/m 19,3 km/h (3 Bft) 93,62 %
03.02.2023 13:14 9,7 C 9,4 C 6,1 C 91 % 1026,1 hPa 0,0 l/m 0 min 0 min 29 W/m 16,1 km/h (3 Bft) 93,62 %
03.02.2023 13:16 9,7 C 9,4 C 6,1 C 91 % 1026,1 hPa 0,0 l/m 0 min 0 min 34 W/m 16,1 km/h (3 Bft) 91,49 %
03.02.2023 13:18 9,7 C 9,4 C 6,1 C 91 % 1026,0 hPa 0,0 l/m 0 min 0 min 33 W/m 16,1 km/h (3 Bft) 95,74 %
03.02.2023 13:20 9,7 C 9,4 C 6,1 C 91 % 1026,0 hPa 0,0 l/m 0 min 0 min 35 W/m 19,3 km/h (3 Bft) 93,48 %
03.02.2023 13:22 9,8 C 9,4 C 6,1 C 91 % 1026,0 hPa 0,0 l/m 0 min 0 min 30 W/m 19,3 km/h (3 Bft) 95,74 %
03.02.2023 13:24 9,8 C 9,4 C 6,1 C 91 % 1026,0 hPa 0,0 l/m 0 min 0 min 32 W/m 19,3 km/h (3 Bft) 95,74 %
03.02.2023 13:26 9,8 C 9,4 C 6,1 C 91 % 1026,1 hPa 0,0 l/m 0 min 0 min 33 W/m 16,1 km/h (3 Bft) 97,87 %
03.02.2023 13:28 9,8 C 9,4 C 6,1 C 91 % 1026,1 hPa 0,0 l/m 0 min 0 min 34 W/m 19,3 km/h (3 Bft) 95,74 %
03.02.2023 13:30 9,8 C 9,4 C 6,1 C 91 % 1026,2 hPa 0,0 l/m 0 min 0 min 31 W/m 19,3 km/h (3 Bft) 95,74 %
03.02.2023 13:32 9,8 C 9,4 C 6,1 C 90 % 1026,2 hPa 0,0 l/m 0 min 0 min 36 W/m 19,3 km/h (3 Bft) 93,62 %
03.02.2023 13:34 9,8 C 9,4 C 6,1 C 90 % 1026,1 hPa 0,0 l/m 0 min 0 min 41 W/m 25,7 km/h (4 Bft) 93,48 %
03.02.2023 13:36 9,9 C 9,4 C 6,1 C 90 % 1026,1 hPa 0,0 l/m 0 min 0 min 46 W/m 16,1 km/h (3 Bft) 95,74 %
03.02.2023 13:38 9,9 C 9,4 C 6,1 C 90 % 1026,1 hPa 0,0 l/m 0 min 0 min 47 W/m 12,9 km/h (3 Bft) 97,87 %
03.02.2023 13:40 9,9 C 9,4 C 6,1 C 90 % 1026,1 hPa 0,0 l/m 0 min 0 min 48 W/m 19,3 km/h (3 Bft) 97,87 %
03.02.2023 13:42 9,9 C 9,4 C 6,1 C 90 % 1026,2 hPa 0,0 l/m 0 min 0 min 45 W/m 22,5 km/h (4 Bft) 97,87 %
03.02.2023 13:44 9,9 C 9,4 C 6,7 C 90 % 1026,1 hPa 0,0 l/m 0 min 0 min 49 W/m 22,5 km/h (4 Bft) 93,62 %
03.02.2023 13:46 10,0 C 9,4 C 6,7 C 90 % 1026,2 hPa 0,0 l/m 0 min 0 min 53 W/m 16,1 km/h (3 Bft) 95,74 %
03.02.2023 13:48 10,0 C 9,4 C 6,7 C 90 % 1026,2 hPa 0,0 l/m 0 min 0 min 49 W/m 25,7 km/h (4 Bft) 95,65 %
03.02.2023 13:50 10,0 C 9,4 C 6,1 C 90 % 1026,1 hPa 0,0 l/m 0 min 0 min 44 W/m 19,3 km/h (3 Bft) 95,74 %
03.02.2023 13:52 10,0 C 9,4 C 6,7 C 90 % 1026,2 hPa 0,0 l/m 0 min 0 min 42 W/m 16,1 km/h (3 Bft) 95,74 %
03.02.2023 13:54 10,1 C 9,4 C 6,1 C 90 % 1026,1 hPa 0,0 l/m 0 min 0 min 39 W/m 19,3 km/h (3 Bft) 100,00 %
03.02.2023 13:56 10,1 C 9,4 C 6,7 C 90 % 1026,2 hPa 0,0 l/m 0 min 0 min 43 W/m 22,5 km/h (4 Bft) 97,87 %
03.02.2023 13:58 10,1 C 9,4 C 6,1 C 90 % 1026,3 hPa 0,0 l/m 0 min 0 min 45 W/m 19,3 km/h (3 Bft) 97,87 %
03.02.2023 14:00 10,1 C 9,4 C 6,7 C 90 % 1026,2 hPa 0,0 l/m 0 min 0 min 42 W/m 16,1 km/h (3 Bft) 97,83 %
03.02.2023 14:02 10,1 C 9,4 C 6,7 C 90 % 1026,2 hPa 0,0 l/m 0 min 0 min 46 W/m 16,1 km/h (3 Bft) 95,74 %
03.02.2023 14:04 10,1 C 9,4 C 6,7 C 90 % 1026,2 hPa 0,0 l/m 0 min 0 min 50 W/m 16,1 km/h (3 Bft) 97,87 %
03.02.2023 14:06 10,1 C 9,4 C 6,7 C 90 % 1026,2 hPa 0,0 l/m 0 min 0 min 53 W/m 19,3 km/h (3 Bft) 95,83 %
03.02.2023 14:08 10,1 C 9,4 C 6,7 C 90 % 1026,2 hPa 0,0 l/m 0 min 0 min 44 W/m 19,3 km/h (3 Bft) 97,87 %
03.02.2023 14:10 10,1 C 9,4 C 6,7 C 90 % 1026,2 hPa 0,0 l/m 0 min 0 min 48 W/m 19,3 km/h (3 Bft) 95,74 %
03.02.2023 14:12 10,1 C 9,4 C 6,7 C 90 % 1026,2 hPa 0,0 l/m 0 min 0 min 46 W/m 19,3 km/h (3 Bft) 97,87 %
03.02.2023 14:14 10,1 C 9,4 C 6,7 C 90 % 1026,1 hPa 0,0 l/m 0 min 0 min 54 W/m 25,7 km/h (4 Bft) 97,83 %
03.02.2023 14:16 10,1 C 9,4 C 6,7 C 90 % 1026,1 hPa 0,0 l/m 0 min 0 min 47 W/m 25,7 km/h (4 Bft) 97,87 %
03.02.2023 14:18 10,1 C 9,4 C 6,7 C 90 % 1026,1 hPa 0,0 l/m 0 min 0 min 38 W/m 16,1 km/h (3 Bft) 97,87 %
03.02.2023 14:20 10,1 C 9,4 C 6,7 C 90 % 1026,1 hPa 0,0 l/m 0 min 0 min 41 W/m 19,3 km/h (3 Bft) 97,87 %
03.02.2023 14:22 10,1 C 9,4 C 6,1 C 90 % 1026,2 hPa 0,0 l/m 0 min 0 min 43 W/m 16,1 km/h (3 Bft) 97,87 %
03.02.2023 14:24 10,1 C 9,4 C 6,7 C 90 % 1026,2 hPa 0,0 l/m 0 min 0 min 46 W/m 16,1 km/h (3 Bft) 97,87 %
03.02.2023 14:26 10,1 C 9,4 C 6,7 C 90 % 1026,2 hPa 0,0 l/m 0 min 0 min 42 W/m 19,3 km/h (3 Bft) 95,74 %
03.02.2023 14:28 10,1 C 9,4 C 6,7 C 90 % 1026,2 hPa 0,0 l/m 0 min 0 min 30 W/m 16,1 km/h (3 Bft) 97,83 %
03.02.2023 14:30 10,1 C 9,4 C 6,1 C 90 % 1026,2 hPa 0,0 l/m 0 min 0 min 30 W/m 19,3 km/h (3 Bft) 97,87 %
03.02.2023 14:32 10,1 C 9,4 C 6,1 C 90 % 1026,2 hPa 0,0 l/m 0 min 0 min 38 W/m 12,9 km/h (3 Bft) 97,87 %
03.02.2023 14:34 10,1 C 9,4 C 6,7 C 90 % 1026,2 hPa 0,0 l/m 0 min 0 min 39 W/m 16,1 km/h (3 Bft) 97,87 %
03.02.2023 14:36 10,1 C 9,4 C 6,7 C 90 % 1026,2 hPa 0,0 l/m 0 min 0 min 36 W/m 25,7 km/h (4 Bft) 95,74 %
03.02.2023 14:38 10,1 C 9,4 C 6,7 C 90 % 1026,1 hPa 0,0 l/m 0 min 0 min 32 W/m 16,1 km/h (3 Bft) 97,87 %
03.02.2023 14:40 10,1 C 9,4 C 6,7 C 90 % 1026,0 hPa 0,0 l/m 0 min 0 min 39 W/m 16,1 km/h (3 Bft) 97,83 %
03.02.2023 14:42 10,1 C 9,4 C 6,7 C 90 % 1026,0 hPa 0,0 l/m 0 min 0 min 40 W/m 19,3 km/h (3 Bft) 95,74 %
03.02.2023 14:44 10,1 C 9,4 C 6,7 C 90 % 1026,0 hPa 0,0 l/m 0 min 0 min 45 W/m 12,9 km/h (3 Bft) 95,74 %
03.02.2023 14:46 10,1 C 9,4 C 6,7 C 90 % 1025,8 hPa 0,0 l/m 0 min 0 min 62 W/m 19,3 km/h (3 Bft) 100,00 %
03.02.2023 14:48 10,1 C 10,0 C 6,7 C 90 % 1025,8 hPa 0,0 l/m 0 min 0 min 71 W/m 19,3 km/h (3 Bft) 100,00 %
03.02.2023 14:50 10,1 C 10,0 C 6,7 C 90 % 1025,9 hPa 0,0 l/m 0 min 0 min 69 W/m 16,1 km/h (3 Bft) 100,00 %
03.02.2023 14:52 10,2 C 10,0 C 6,7 C 90 % 1025,8 hPa 0,0 l/m 0 min 0 min 71 W/m 22,5 km/h (4 Bft) 100,00 %
03.02.2023 14:54 10,2 C 10,0 C 6,7 C 90 % 1025,9 hPa 0,0 l/m 0 min 0 min 69 W/m 19,3 km/h (3 Bft) 95,65 %
03.02.2023 14:56 10,2 C 10,0 C 6,7 C 90 % 1026,0 hPa 0,0 l/m 0 min 0 min 55 W/m 25,7 km/h (4 Bft) 100,00 %
03.02.2023 14:58 10,2 C 10,0 C 6,7 C 90 % 1025,9 hPa 0,0 l/m 0 min 0 min 58 W/m 16,1 km/h (3 Bft) 100,00 %
03.02.2023 15:00 10,2 C 10,0 C 6,7 C 90 % 1026,0 hPa 0,0 l/m 0 min 0 min 69 W/m 16,1 km/h (3 Bft) 100,00 %
03.02.2023 15:02 10,2 C 10,0 C 6,7 C 90 % 1026,0 hPa 0,0 l/m 0 min 0 min 61 W/m 19,3 km/h (3 Bft) 95,74 %
03.02.2023 15:04 10,3 C 10,0 C 6,7 C 90 % 1026,0 hPa 0,0 l/m 0 min 0 min 61 W/m 22,5 km/h (4 Bft) 97,87 %
03.02.2023 15:06 10,3 C 10,0 C 6,7 C 90 % 1026,1 hPa 0,0 l/m 0 min 0 min 78 W/m 19,3 km/h (3 Bft) 97,83 %
03.02.2023 15:08 10,3 C 10,0 C 6,7 C 90 % 1026,1 hPa 0,0 l/m 0 min 0 min 81 W/m 19,3 km/h (3 Bft) 97,87 %
03.02.2023 15:10 10,3 C 10,0 C 6,7 C 90 % 1026,1 hPa 0,0 l/m 0 min 0 min 67 W/m 19,3 km/h (3 Bft) 95,74 %
03.02.2023 15:12 10,3 C 10,0 C 6,7 C 90 % 1026,1 hPa 0,0 l/m 0 min 0 min 48 W/m 19,3 km/h (3 Bft) 97,87 %
03.02.2023 15:14 10,3 C 10,0 C 6,7 C 90 % 1026,2 hPa 0,0 l/m 0 min 0 min 50 W/m 16,1 km/h (3 Bft) 97,87 %
03.02.2023 15:16 10,3 C 10,0 C 6,7 C 90 % 1026,2 hPa 0,0 l/m 0 min 0 min 53 W/m 16,1 km/h (3 Bft) 95,74 %
03.02.2023 15:18 10,3 C 10,0 C 6,7 C 90 % 1026,2 hPa 0,0 l/m 0 min 0 min 45 W/m 12,9 km/h (3 Bft) 97,87 %
03.02.2023 15:20 10,3 C 10,0 C 6,7 C 90 % 1026,2 hPa 0,0 l/m 0 min 0 min 36 W/m 16,1 km/h (3 Bft) 95,65 %
03.02.2023 15:22 10,3 C 10,0 C 6,7 C 90 % 1026,2 hPa 0,0 l/m 0 min 0 min 37 W/m 22,5 km/h (4 Bft) 97,87 %
03.02.2023 15:24 10,3 C 10,0 C 6,7 C 90 % 1026,1 hPa 0,0 l/m 0 min 2 min 35 W/m 19,3 km/h (3 Bft) 97,87 %
03.02.2023 15:26 10,3 C 10,0 C 6,7 C 90 % 1026,1 hPa 0,0 l/m 0 min 2 min 33 W/m 16,1 km/h (3 Bft) 97,87 %
03.02.2023 15:28 10,3 C 9,4 C 6,7 C 90 % 1026,1 hPa 0,0 l/m 0 min 2 min 26 W/m 19,3 km/h (3 Bft) 97,87 %
03.02.2023 15:30 10,3 C 9,4 C 6,7 C 90 % 1026,1 hPa 0,0 l/m 0 min 0 min 23 W/m 16,1 km/h (3 Bft) 97,87 %
03.02.2023 15:32 10,3 C 9,4 C 6,1 C 90 % 1026,2 hPa 0,0 l/m 0 min 0 min 21 W/m 16,1 km/h (3 Bft) 95,74 %
03.02.2023 15:34 10,3 C 9,4 C 6,1 C 90 % 1026,2 hPa 0,0 l/m 0 min 0 min 20 W/m 16,1 km/h (3 Bft) 97,78 %
03.02.2023 15:36 10,2 C 9,4 C 6,1 C 90 % 1026,1 hPa 0,0 l/m 0 min 0 min 21 W/m 19,3 km/h (3 Bft) 97,87 %
03.02.2023 15:38 10,2 C 9,4 C 6,1 C 90 % 1026,1 hPa 0,0 l/m 0 min 0 min 28 W/m 16,1 km/h (3 Bft) 100,00 %
03.02.2023 15:40 10,2 C 9,4 C 6,1 C 90 % 1026,1 hPa 0,0 l/m 0 min 0 min 25 W/m 19,3 km/h (3 Bft) 100,00 %
03.02.2023 15:42 10,2 C 9,4 C 6,1 C 90 % 1026,2 hPa 0,0 l/m 0 min 0 min 26 W/m 22,5 km/h (4 Bft) 100,00 %
03.02.2023 15:44 10,2 C 9,4 C 6,1 C 90 % 1026,2 hPa 0,0 l/m 0 min 0 min 23 W/m 16,1 km/h (3 Bft) 100,00 %
03.02.2023 15:46 10,2 C 9,4 C 6,1 C 90 % 1026,3 hPa 0,0 l/m 0 min 0 min 24 W/m 22,5 km/h (4 Bft) 97,83 %
03.02.2023 15:48 10,2 C 9,4 C 6,1 C 90 % 1026,3 hPa 0,0 l/m 0 min 0 min 27 W/m 19,3 km/h (3 Bft) 100,00 %
03.02.2023 15:50 10,2 C 9,4 C 6,1 C 90 % 1026,3 hPa 0,0 l/m 0 min 0 min 26 W/m 22,5 km/h (4 Bft) 100,00 %
03.02.2023 15:52 10,2 C 10,0 C 6,1 C 90 % 1026,4 hPa 0,0 l/m 0 min 0 min 24 W/m 29,0 km/h (5 Bft) 97,87 %
03.02.2023 15:54 10,3 C 10,0 C 6,7 C 90 % 1026,4 hPa 0,0 l/m 0 min 0 min 25 W/m 22,5 km/h (4 Bft) 97,87 %
03.02.2023 15:56 10,3 C 10,0 C 6,7 C 90 % 1026,5 hPa 0,0 l/m 0 min 0 min 19 W/m 19,3 km/h (3 Bft) 97,87 %
03.02.2023 15:58 10,3 C 10,0 C 6,7 C 89 % 1026,5 hPa 0,0 l/m 0 min 0 min 14 W/m 16,1 km/h (3 Bft) 97,83 %
03.02.2023 16:00 10,3 C 10,0 C 6,7 C 89 % 1026,6 hPa 0,0 l/m 0 min 0 min 13 W/m 19,3 km/h (3 Bft) 97,87 %
03.02.2023 16:02 10,3 C 9,4 C 6,7 C 89 % 1026,5 hPa 0,0 l/m 0 min 0 min 12 W/m 22,5 km/h (4 Bft) 97,87 %
03.02.2023 16:04 10,3 C 9,4 C 6,7 C 89 % 1026,5 hPa 0,0 l/m 0 min 0 min 10 W/m 22,5 km/h (4 Bft) 97,87 %
03.02.2023 16:06 10,3 C 9,4 C 6,7 C 89 % 1026,6 hPa 0,0 l/m 0 min 0 min 7 W/m 22,5 km/h (4 Bft) 97,92 %
03.02.2023 16:08 10,3 C 9,4 C 6,7 C 89 % 1026,6 hPa 0,0 l/m 0 min 0 min 5 W/m 19,3 km/h (3 Bft) 95,74 %
03.02.2023 16:10 10,3 C 9,4 C 6,1 C 89 % 1026,8 hPa 0,0 l/m 0 min 0 min 2 W/m 25,7 km/h (4 Bft) 95,74 %
03.02.2023 16:12 10,3 C 9,4 C 6,1 C 89 % 1027,0 hPa 0,0 l/m 0 min 0 min 0 W/m 32,2 km/h (5 Bft) 97,83 %
03.02.2023 16:14 10,2 C 8,9 C 6,1 C 89 % 1027,1 hPa 0,0 l/m 0 min 2 min 0 W/m 51,5 km/h (7 Bft) 97,87 %
03.02.2023 16:16 10,1 C 8,9 C 5,6 C 89 % 1027,1 hPa 0,0 l/m 0 min 2 min 0 W/m 29,0 km/h (5 Bft) 93,62 %
03.02.2023 16:18 10,0 C 8,9 C 5,6 C 89 % 1027,1 hPa 0,0 l/m 0 min 2 min 0 W/m 25,7 km/h (4 Bft) 95,74 %
03.02.2023 16:20 9,9 C 8,3 C 5,6 C 89 % 1027,1 hPa 0,0 l/m 0 min 0 min 0 W/m 35,4 km/h (5 Bft) 97,87 %
03.02.2023 16:22 9,8 C 8,3 C 5,6 C 89 % 1027,2 hPa 0,0 l/m 0 min 0 min 0 W/m 38,6 km/h (5 Bft) 97,87 %
03.02.2023 16:24 9,7 C 8,3 C 5,6 C 89 % 1027,2 hPa 0,0 l/m 0 min 0 min 4 W/m 25,7 km/h (4 Bft) 95,65 %
03.02.2023 16:26 9,6 C 8,3 C 5,6 C 90 % 1027,1 hPa 0,0 l/m 0 min 0 min 9 W/m 25,7 km/h (4 Bft) 97,87 %
03.02.2023 16:28 9,4 C 8,3 C 5,6 C 90 % 1027,2 hPa 0,0 l/m 0 min 2 min 9 W/m 29,0 km/h (5 Bft) 97,87 %
03.02.2023 16:30 9,4 C 8,3 C 5,6 C 90 % 1027,3 hPa 0,0 l/m 0 min 0 min 12 W/m 35,4 km/h (5 Bft) 97,87 %
03.02.2023 16:32 9,3 C 8,3 C 5,6 C 90 % 1027,2 hPa 0,0 l/m 0 min 2 min 12 W/m 29,0 km/h (5 Bft) 95,74 %
03.02.2023 16:34 9,2 C 8,3 C 5,6 C 90 % 1027,3 hPa 0,0 l/m 0 min 0 min 12 W/m 38,6 km/h (5 Bft) 97,87 %
03.02.2023 16:36 9,2 C 8,3 C 5,6 C 90 % 1027,2 hPa 0,0 l/m 0 min 0 min 12 W/m 32,2 km/h (5 Bft) 97,87 %
03.02.2023 16:38 9,2 C 8,3 C 5,6 C 90 % 1027,3 hPa 0,0 l/m 0 min 0 min 12 W/m 35,4 km/h (5 Bft) 97,83 %
03.02.2023 16:40 9,1 C 8,3 C 5,6 C 90 % 1027,2 hPa 0,0 l/m 0 min 0 min 12 W/m 22,5 km/h (4 Bft) 95,74 %
03.02.2023 16:42 9,1 C 8,3 C 5,6 C 90 % 1027,3 hPa 0,0 l/m 0 min 0 min 12 W/m 6,4 km/h (2 Bft) 22,22 %
03.02.2023 16:44 9,1 C 8,3 C 5,6 C 91 % 1027,3 hPa 0,0 l/m 0 min 0 min 12 W/m 25,7 km/h (4 Bft) 100,00 %
03.02.2023 16:46 9,1 C 8,3 C 5,6 C 91 % 1027,3 hPa 0,0 l/m 0 min 0 min 12 W/m 25,7 km/h (4 Bft) 95,74 %
03.02.2023 16:48 9,1 C 8,3 C 5,6 C 91 % 1027,3 hPa 0,0 l/m 0 min 0 min 11 W/m 19,3 km/h (3 Bft) 95,74 %
03.02.2023 16:50 9,1 C 8,3 C 5,6 C 91 % 1027,4 hPa 0,0 l/m 0 min 0 min 11 W/m 16,1 km/h (3 Bft) 95,74 %
03.02.2023 16:52 9,1 C 8,3 C 5,6 C 91 % 1027,4 hPa 0,0 l/m 0 min 0 min 11 W/m 19,3 km/h (3 Bft) 95,65 %
03.02.2023 16:54 9,1 C 8,3 C 5,6 C 91 % 1027,4 hPa 0,0 l/m 0 min 0 min 12 W/m 19,3 km/h (3 Bft) 97,87 %
03.02.2023 16:56 9,1 C 8,3 C 5,6 C 91 % 1027,5 hPa 0,0 l/m 0 min 0 min 12 W/m 19,3 km/h (3 Bft) 95,74 %
03.02.2023 16:58 9,1 C 8,3 C 5,0 C 91 % 1027,5 hPa 0,0 l/m 0 min 0 min 11 W/m 19,3 km/h (3 Bft) 97,87 %
03.02.2023 17:00 9,1 C 8,3 C 5,0 C 91 % 1027,5 hPa 0,0 l/m 0 min 0 min 9 W/m 22,5 km/h (4 Bft) 93,62 %
03.02.2023 17:02 9,0 C 8,3 C 5,0 C 91 % 1027,5 hPa 0,0 l/m 0 min 0 min 9 W/m 12,9 km/h (3 Bft) 93,62 %
03.02.2023 17:04 9,0 C 8,3 C 5,0 C 91 % 1027,5 hPa 0,0 l/m 0 min 0 min 9 W/m 12,9 km/h (3 Bft) 95,65 %
03.02.2023 17:06 9,0 C 8,3 C 5,0 C 91 % 1027,5 hPa 0,0 l/m 0 min 0 min 8 W/m 16,1 km/h (3 Bft) 95,74 %
03.02.2023 17:08 9,0 C 8,3 C 5,0 C 91 % 1027,5 hPa 0,0 l/m 0 min 0 min 7 W/m 12,9 km/h (3 Bft) 95,74 %
03.02.2023 17:10 9,0 C 8,3 C 5,0 C 91 % 1027,5 hPa 0,0 l/m 0 min 0 min 7 W/m 12,9 km/h (3 Bft) 93,62 %
03.02.2023 17:12 9,0 C 8,3 C 5,0 C 91 % 1027,6 hPa 0,0 l/m 0 min 0 min 7 W/m 9,7 km/h (2 Bft) 93,62 %
03.02.2023 17:14 9,0 C 8,3 C 5,0 C 91 % 1027,5 hPa 0,0 l/m 0 min 0 min 7 W/m 12,9 km/h (3 Bft) 97,37 %
03.02.2023 17:16 9,0 C 8,3 C 5,0 C 91 % 1027,6 hPa 0,0 l/m 0 min 0 min 5 W/m 3,2 km/h (1 Bft) 93,62 %
03.02.2023 17:18 9,0 C 8,3 C 5,0 C 91 % 1027,6 hPa 0,0 l/m 0 min 0 min 5 W/m 12,9 km/h (3 Bft) 95,74 %
03.02.2023 17:20 9,0 C 8,3 C 5,0 C 91 % 1027,8 hPa 0,0 l/m 0 min 0 min 0 W/m 16,1 km/h (3 Bft) 93,62 %
03.02.2023 17:22 9,0 C 8,3 C 5,0 C 92 % 1027,9 hPa 0,0 l/m 0 min 0 min 0 W/m 12,9 km/h (3 Bft) 94,55 %
03.02.2023 17:24 9,0 C 8,3 C 5,0 C 92 % 1027,9 hPa 0,0 l/m 0 min 0 min 0 W/m 9,7 km/h (2 Bft) 95,74 %
03.02.2023 17:26 9,0 C 8,3 C 5,0 C 92 % 1027,9 hPa 0,0 l/m 0 min 0 min 0 W/m 6,4 km/h (2 Bft) 95,74 %
03.02.2023 17:28 8,9 C 8,3 C 5,0 C 92 % 1028,0 hPa 0,0 l/m 0 min 0 min 0 W/m 9,7 km/h (2 Bft) 95,74 %
03.02.2023 17:30 8,9 C 8,3 C 5,0 C 92 % 1027,9 hPa 0,0 l/m 0 min 0 min 0 W/m 9,7 km/h (2 Bft) 97,87 %
03.02.2023 17:32 8,9 C 8,3 C 5,0 C 92 % 1027,9 hPa 0,0 l/m 0 min 0 min 0 W/m 6,4 km/h (2 Bft) 95,65 %
03.02.2023 17:34 8,9 C 8,3 C 5,0 C 92 % 1027,9 hPa 0,0 l/m 0 min 0 min 0 W/m 9,7 km/h (2 Bft) 97,87 %
03.02.2023 17:36 8,9 C 8,3 C 5,0 C 92 % 1027,9 hPa 0,0 l/m 0 min 0 min 0 W/m 12,9 km/h (3 Bft) 100,00 %
03.02.2023 17:38 8,9 C 8,3 C 5,0 C 92 % 1027,9 hPa 0,0 l/m 0 min 0 min 0 W/m 12,9 km/h (3 Bft) 93,62 %
03.02.2023 17:40 8,9 C 8,3 C 5,0 C 92 % 1027,9 hPa 0,0 l/m 0 min 0 min 0 W/m 12,9 km/h (3 Bft) 97,87 %
03.02.2023 17:42 8,9 C 8,3 C 5,0 C 92 % 1027,8 hPa 0,0 l/m 0 min 0 min 0 W/m 16,1 km/h (3 Bft) 100,00 %
03.02.2023 17:44 8,9 C 8,3 C 5,0 C 92 % 1027,8 hPa 0,0 l/m 0 min 0 min 0 W/m 9,7 km/h (2 Bft) 97,83 %
03.02.2023 17:46 8,9 C 8,3 C 5,0 C 92 % 1027,9 hPa 0,0 l/m 0 min 0 min 0 W/m 16,1 km/h (3 Bft) 91,49 %
03.02.2023 17:48 8,9 C 8,3 C 5,0 C 92 % 1027,8 hPa 0,0 l/m 0 min 0 min 0 W/m 12,9 km/h (3 Bft) 95,74 %
03.02.2023 17:50 8,9 C 8,3 C 5,0 C 92 % 1027,8 hPa 0,0 l/m 0 min 0 min 0 W/m 16,1 km/h (3 Bft) 100,00 %
03.02.2023 17:52 8,9 C 8,3 C 5,0 C 92 % 1027,9 hPa 0,0 l/m 0 min 0 min 0 W/m 12,9 km/h (3 Bft) 100,00 %
03.02.2023 17:54 8,9 C 8,3 C 5,0 C 92 % 1028,0 hPa 0,0 l/m 0 min 0 min 0 W/m 9,7 km/h (2 Bft) 100,00 %
03.02.2023 17:56 8,9 C 8,3 C 5,0 C 92 % 1028,0 hPa 0,0 l/m 0 min 0 min 0 W/m 12,9 km/h (3 Bft) 97,83 %
03.02.2023 17:58 8,9 C 8,3 C 5,0 C 91 % 1028,1 hPa 0,0 l/m 0 min 0 min 0 W/m 16,1 km/h (3 Bft) 97,87 %
03.02.2023 18:00 8,9 C 8,3 C 5,0 C 91 % 1028,1 hPa 0,0 l/m 0 min 0 min 0 W/m 12,9 km/h (3 Bft) 100,00 %
03.02.2023 18:02 8,9 C 8,3 C 5,0 C 91 % 1028,1 hPa 0,0 l/m 0 min 0 min 0 W/m 12,9 km/h (3 Bft) 97,87 %
03.02.2023 18:04 8,9 C 8,3 C 5,0 C 92 % 1028,1 hPa 0,0 l/m 0 min 0 min 0 W/m 16,1 km/h (3 Bft) 100,00 %
03.02.2023 18:08 8,9 C 8,3 C 5,0 C 92 % 1028,1 hPa 0,0 l/m 0 min 0 min 0 W/m 12,9 km/h (3 Bft) 100,00 %
03.02.2023 18:10 8,9 C 8,3 C 5,0 C 92 % 1028,2 hPa 0,0 l/m 0 min 0 min 0 W/m 12,9 km/h (3 Bft) 97,87 %
03.02.2023 18:12 8,9 C 8,3 C 5,0 C 92 % 1028,2 hPa 0,0 l/m 0 min 0 min 0 W/m 12,9 km/h (3 Bft) 97,87 %
03.02.2023 18:14 8,9 C 8,3 C 5,0 C 92 % 1028,2 hPa 0,0 l/m 0 min 0 min 0 W/m 9,7 km/h (2 Bft) 100,00 %
03.02.2023 18:16 8,9 C 8,3 C 5,0 C 91 % 1028,3 hPa 0,0 l/m 0 min 0 min 0 W/m 12,9 km/h (3 Bft) 100,00 %
03.02.2023 18:18 8,9 C 8,3 C 5,0 C 91 % 1028,3 hPa 0,0 l/m 0 min 0 min 0 W/m 12,9 km/h (3 Bft) 100,00 %
03.02.2023 18:20 8,9 C 8,3 C 5,0 C 91 % 1028,4 hPa 0,0 l/m 0 min 0 min 0 W/m 12,9 km/h (3 Bft) 100,00 %
03.02.2023 18:22 8,9 C 8,3 C 5,0 C 91 % 1028,4 hPa 0,0 l/m 0 min 0 min 0 W/m 9,7 km/h (2 Bft) 97,87 %
03.02.2023 18:24 8,9 C 8,3 C 5,0 C 91 % 1028,3 hPa 0,0 l/m 0 min 0 min 0 W/m 16,1 km/h (3 Bft) 100,00 %
03.02.2023 18:26 8,8 C 8,3 C 5,0 C 91 % 1028,4 hPa 0,0 l/m 0 min 0 min 0 W/m 12,9 km/h (3 Bft) 100,00 %
03.02.2023 18:28 8,8 C 8,3 C 5,0 C 91 % 1028,4 hPa 0,0 l/m 0 min 0 min 0 W/m 12,9 km/h (3 Bft) 100,00 %
03.02.2023 18:30 8,8 C 8,3 C 5,0 C 91 % 1028,4 hPa 0,0 l/m 0 min 0 min 0 W/m 16,1 km/h (3 Bft) 100,00 %
03.02.2023 18:32 8,8 C 8,3 C 5,0 C 91 % 1028,4 hPa 0,0 l/m 0 min 0 min 0 W/m 9,7 km/h (2 Bft) 100,00 %
03.02.2023 18:34 8,8 C 8,3 C 5,0 C 91 % 1028,4 hPa 0,0 l/m 0 min 0 min 0 W/m 9,7 km/h (2 Bft) 100,00 %
03.02.2023 18:36 8,8 C 7,8 C 5,0 C 91 % 1028,4 hPa 0,0 l/m 0 min 0 min 0 W/m 12,9 km/h (3 Bft) 100,00 %
03.02.2023 18:38 8,8 C 7,8 C 5,0 C 91 % 1028,4 hPa 0,0 l/m 0 min 0 min 0 W/m 12,9 km/h (3 Bft) 100,00 %
03.02.2023 18:40 8,8 C 7,8 C 5,0 C 91 % 1028,4 hPa 0,0 l/m 0 min 0 min 0 W/m 12,9 km/h (3 Bft) 97,87 %
03.02.2023 18:42 8,8 C 7,8 C 5,0 C 91 % 1028,4 hPa 0,0 l/m 0 min 0 min 0 W/m 12,9 km/h (3 Bft) 100,00 %
03.02.2023 18:44 8,8 C 7,8 C 5,0 C 91 % 1028,5 hPa 0,0 l/m 0 min 0 min 0 W/m 16,1 km/h (3 Bft) 100,00 %
03.02.2023 18:46 8,8 C 7,8 C 5,0 C 91 % 1028,6 hPa 0,0 l/m 0 min 0 min 0 W/m 12,9 km/h (3 Bft) 100,00 %
03.02.2023 18:48 8,7 C 7,8 C 5,0 C 91 % 1028,6 hPa 0,0 l/m 0 min 0 min 0 W/m 16,1 km/h (3 Bft) 97,87 %
03.02.2023 18:50 8,7 C 7,8 C 5,0 C 91 % 1028,7 hPa 0,0 l/m 0 min 0 min 0 W/m 12,9 km/h (3 Bft) 97,87 %
03.02.2023 18:52 8,7 C 7,8 C 5,0 C 91 % 1028,7 hPa 0,0 l/m 0 min 0 min 0 W/m 12,9 km/h (3 Bft) 91,49 %
03.02.2023 18:54 8,7 C 7,8 C 5,0 C 91 % 1028,7 hPa 0,0 l/m 0 min 0 min 0 W/m 19,3 km/h (3 Bft) 95,74 %
03.02.2023 18:56 8,6 C 7,8 C 5,0 C 91 % 1028,7 hPa 0,0 l/m 0 min 0 min 0 W/m 12,9 km/h (3 Bft) 93,48 %
03.02.2023 18:58 8,6 C 7,8 C 5,0 C 91 % 1028,8 hPa 0,0 l/m 0 min 0 min 0 W/m 9,7 km/h (2 Bft) 95,74 %
03.02.2023 19:00 8,6 C 7,8 C 5,0 C 91 % 1028,7 hPa 0,0 l/m 0 min 0 min 0 W/m 12,9 km/h (3 Bft) 91,49 %
03.02.2023 19:02 8,6 C 7,8 C 5,0 C 91 % 1028,9 hPa 0,0 l/m 0 min 0 min 0 W/m 12,9 km/h (3 Bft) 95,74 %
03.02.2023 19:04 8,6 C 7,8 C 5,0 C 91 % 1028,9 hPa 0,0 l/m 0 min 0 min 0 W/m 12,9 km/h (3 Bft) 95,74 %
03.02.2023 19:06 8,6 C 7,8 C 5,0 C 91 % 1029,0 hPa 0,0 l/m 0 min 0 min 0 W/m 16,1 km/h (3 Bft) 95,74 %
03.02.2023 19:08 8,6 C 7,8 C 5,0 C 91 % 1029,0 hPa 0,0 l/m 0 min 0 min 0 W/m 19,3 km/h (3 Bft) 93,62 %
03.02.2023 19:10 8,6 C 7,8 C 5,0 C 90 % 1029,0 hPa 0,0 l/m 0 min 0 min 0 W/m 12,9 km/h (3 Bft) 93,48 %
03.02.2023 19:12 8,6 C 7,8 C 5,0 C 90 % 1029,0 hPa 0,0 l/m 0 min 0 min 0 W/m 19,3 km/h (3 Bft) 93,62 %
03.02.2023 19:14 8,6 C 7,8 C 5,0 C 90 % 1029,0 hPa 0,0 l/m 0 min 0 min 0 W/m 16,1 km/h (3 Bft) 95,74 %
03.02.2023 19:16 8,6 C 7,8 C 5,0 C 90 % 1029,0 hPa 0,0 l/m 0 min 0 min 0 W/m 12,9 km/h (3 Bft) 93,62 %
03.02.2023 19:18 8,6 C 7,8 C 5,0 C 90 % 1029,0 hPa 0,0 l/m 0 min 0 min 0 W/m 12,9 km/h (3 Bft) 89,36 %
03.02.2023 19:20 8,6 C 7,8 C 5,0 C 90 % 1029,1 hPa 0,0 l/m 0 min 0 min 0 W/m 12,9 km/h (3 Bft) 91,49 %
03.02.2023 19:22 8,6 C 7,8 C 5,0 C 90 % 1029,1 hPa 0,0 l/m 0 min 0 min 0 W/m 16,1 km/h (3 Bft) 95,65 %
03.02.2023 19:24 8,6 C 7,8 C 5,0 C 90 % 1029,1 hPa 0,0 l/m 0 min 0 min 0 W/m 9,7 km/h (2 Bft) 93,62 %
03.02.2023 19:26 8,6 C 7,8 C 5,0 C 90 % 1029,1 hPa 0,0 l/m 0 min 0 min 0 W/m 16,1 km/h (3 Bft) 95,74 %
03.02.2023 19:28 8,6 C 7,8 C 5,0 C 90 % 1029,2 hPa 0,0 l/m 0 min 0 min 0 W/m 12,9 km/h (3 Bft) 95,74 %
03.02.2023 19:30 8,6 C 7,8 C 5,0 C 90 % 1029,2 hPa 0,0 l/m 0 min 0 min 0 W/m 19,3 km/h (3 Bft) 93,62 %
03.02.2023 19:32 8,6 C 7,8 C 5,0 C 89 % 1029,2 hPa 0,0 l/m 0 min 0 min 0 W/m 16,1 km/h (3 Bft) 91,49 %
03.02.2023 19:34 8,6 C 7,8 C 5,0 C 89 % 1029,3 hPa 0,0 l/m 0 min 0 min 0 W/m 16,1 km/h (3 Bft) 93,62 %
03.02.2023 19:36 8,6 C 7,8 C 5,0 C 89 % 1029,3 hPa 0,0 l/m 0 min 0 min 0 W/m 19,3 km/h (3 Bft) 95,65 %
03.02.2023 19:38 8,6 C 7,8 C 5,0 C 89 % 1029,3 hPa 0,0 l/m 0 min 0 min 0 W/m 22,5 km/h (4 Bft) 97,87 %
03.02.2023 19:40 8,6 C 7,8 C 5,0 C 89 % 1029,3 hPa 0,0 l/m 0 min 0 min 0 W/m 12,9 km/h (3 Bft) 97,87 %
03.02.2023 19:42 8,6 C 7,8 C 5,0 C 89 % 1029,3 hPa 0,0 l/m 0 min 0 min 0 W/m 19,3 km/h (3 Bft) 95,74 %
03.02.2023 19:44 8,6 C 7,8 C 5,0 C 89 % 1029,4 hPa 0,0 l/m 0 min 0 min 0 W/m 16,1 km/h (3 Bft) 95,74 %
03.02.2023 19:46 8,6 C 7,8 C 5,0 C 89 % 1029,3 hPa 0,0 l/m 0 min 0 min 0 W/m 16,1 km/h (3 Bft) 97,87 %
03.02.2023 19:48 8,6 C 7,8 C 5,0 C 89 % 1029,3 hPa 0,0 l/m 0 min 0 min 0 W/m 22,5 km/h (4 Bft) 97,83 %
03.02.2023 19:50 8,6 C 7,8 C 5,0 C 89 % 1029,4 hPa 0,0 l/m 0 min 0 min 0 W/m 19,3 km/h (3 Bft) 97,87 %
03.02.2023 19:52 8,6 C 7,8 C 5,0 C 89 % 1029,3 hPa 0,0 l/m 0 min 0 min 0 W/m 16,1 km/h (3 Bft) 95,74 %
03.02.2023 19:54 8,6 C 7,8 C 5,0 C 89 % 1029,4 hPa 0,0 l/m 0 min 0 min 0 W/m 12,9 km/h (3 Bft) 97,87 %
03.02.2023 19:56 8,6 C 7,8 C 5,0 C 89 % 1029,4 hPa 0,0 l/m 0 min 0 min 0 W/m 22,5 km/h (4 Bft) 94,29 %
03.02.2023 19:58 8,6 C 7,8 C 5,0 C 89 % 1029,5 hPa 0,0 l/m 0 min 0 min 0 W/m 16,1 km/h (3 Bft) 97,87 %
03.02.2023 20:00 8,6 C 7,8 C 5,0 C 89 % 1029,5 hPa 0,0 l/m 0 min 0 min 0 W/m 16,1 km/h (3 Bft) 97,92 %
03.02.2023 20:02 8,6 C 7,8 C 5,0 C 89 % 1029,5 hPa 0,0 l/m 0 min 0 min 0 W/m 16,1 km/h (3 Bft) 95,74 %
03.02.2023 20:04 8,6 C 7,8 C 5,0 C 89 % 1029,5 hPa 0,0 l/m 0 min 0 min 0 W/m 16,1 km/h (3 Bft) 95,74 %
03.02.2023 20:06 8,6 C 7,8 C 5,0 C 89 % 1029,5 hPa 0,0 l/m 0 min 0 min 0 W/m 19,3 km/h (3 Bft) 98,31 %
03.02.2023 20:08 8,6 C 7,8 C 5,0 C 89 % 1029,5 hPa 0,0 l/m 0 min 0 min 0 W/m 22,5 km/h (4 Bft) 97,14 %
03.02.2023 20:10 8,6 C 7,8 C 5,0 C 90 % 1029,5 hPa 0,0 l/m 0 min 0 min 0 W/m 19,3 km/h (3 Bft) 97,87 %
03.02.2023 20:12 8,6 C 7,8 C 5,0 C 90 % 1029,6 hPa 0,0 l/m 0 min 0 min 0 W/m 16,1 km/h (3 Bft) 97,83 %
03.02.2023 20:14 8,6 C 7,8 C 5,0 C 90 % 1029,5 hPa 0,0 l/m 0 min 0 min 0 W/m 12,9 km/h (3 Bft) 100,00 %
03.02.2023 20:16 8,6 C 7,8 C 5,0 C 90 % 1029,5 hPa 0,0 l/m 0 min 0 min 0 W/m 12,9 km/h (3 Bft) 100,00 %
03.02.2023 20:18 8,6 C 7,8 C 5,0 C 91 % 1029,5 hPa 0,0 l/m 0 min 0 min 0 W/m 12,9 km/h (3 Bft) 100,00 %
03.02.2023 20:20 8,6 C 7,8 C 5,0 C 91 % 1029,5 hPa 0,0 l/m 0 min 0 min 0 W/m 16,1 km/h (3 Bft) 97,87 %
03.02.2023 20:22 8,6 C 7,8 C 5,0 C 91 % 1029,5 hPa 0,0 l/m 0 min 0 min 0 W/m 22,5 km/h (4 Bft) 97,87 %
03.02.2023 20:24 8,6 C 7,8 C 5,0 C 91 % 1029,6 hPa 0,0 l/m 0 min 0 min 0 W/m 16,1 km/h (3 Bft) 86,96 %
03.02.2023 20:26 8,6 C 7,8 C 5,0 C 91 % 1029,6 hPa 0,0 l/m 0 min 0 min 0 W/m 16,1 km/h (3 Bft) 97,87 %
03.02.2023 20:28 8,6 C 7,8 C 5,0 C 91 % 1029,7 hPa 0,0 l/m 0 min 0 min 0 W/m 19,3 km/h (3 Bft) 97,87 %
03.02.2023 20:30 8,6 C 7,8 C 5,0 C 91 % 1029,7 hPa 0,0 l/m 0 min 0 min 0 W/m 19,3 km/h (3 Bft) 97,87 %
03.02.2023 20:32 8,6 C 7,8 C 5,0 C 91 % 1029,6 hPa 0,0 l/m 0 min 0 min 0 W/m 19,3 km/h (3 Bft) 100,00 %
03.02.2023 20:34 8,6 C 7,8 C 5,0 C 92 % 1029,7 hPa 0,0 l/m 0 min 0 min 0 W/m 9,7 km/h (2 Bft) 100,00 %
03.02.2023 20:36 8,6 C 7,8 C 5,0 C 92 % 1029,7 hPa 0,0 l/m 0 min 0 min 0 W/m 12,9 km/h (3 Bft) 97,87 %
03.02.2023 20:42 8,6 C 7,8 C 5,0 C 92 % 1029,7 hPa 0,0 l/m 0 min 0 min 0 W/m 16,1 km/h (3 Bft) 100,00 %
03.02.2023 20:44 8,6 C 7,8 C 5,0 C 92 % 1029,7 hPa 0,0 l/m 0 min 0 min 0 W/m 12,9 km/h (3 Bft) 100,00 %
03.02.2023 20:46 8,6 C 7,8 C 5,0 C 92 % 1029,8 hPa 0,0 l/m 0 min 0 min 0 W/m 19,3 km/h (3 Bft) 100,00 %
03.02.2023 20:48 8,5 C 7,8 C 5,0 C 92 % 1029,8 hPa 0,0 l/m 0 min 0 min 0 W/m 16,1 km/h (3 Bft) 95,74 %
03.02.2023 20:50 8,5 C 7,8 C 5,0 C 92 % 1030,0 hPa 0,0 l/m 0 min 0 min 0 W/m 19,3 km/h (3 Bft) 97,83 %
03.02.2023 20:52 8,5 C 7,8 C 5,0 C 92 % 1029,9 hPa 0,0 l/m 0 min 0 min 0 W/m 12,9 km/h (3 Bft) 97,87 %
03.02.2023 20:54 8,5 C 7,8 C 5,0 C 92 % 1030,0 hPa 0,0 l/m 0 min 0 min 0 W/m 12,9 km/h (3 Bft) 95,74 %
03.02.2023 20:56 8,4 C 7,8 C 4,4 C 92 % 1030,0 hPa 0,0 l/m 0 min 0 min 0 W/m 9,7 km/h (2 Bft) 97,87 %
03.02.2023 20:58 8,4 C 7,8 C 5,0 C 92 % 1030,1 hPa 0,0 l/m 0 min 0 min 0 W/m 16,1 km/h (3 Bft) 97,87 %
03.02.2023 21:00 8,4 C 7,8 C 4,4 C 92 % 1030,0 hPa 0,0 l/m 0 min 0 min 0 W/m 19,3 km/h (3 Bft) 93,62 %
03.02.2023 21:02 8,4 C 7,8 C 4,4 C 92 % 1030,0 hPa 0,0 l/m 0 min 0 min 0 W/m 12,9 km/h (3 Bft) 97,83 %
03.02.2023 21:04 8,4 C 7,8 C 5,0 C 92 % 1030,0 hPa 0,0 l/m 0 min 0 min 0 W/m 19,3 km/h (3 Bft) 95,74 %
03.02.2023 21:06 8,4 C 7,8 C 5,0 C 92 % 1030,0 hPa 0,0 l/m 0 min 0 min 0 W/m 16,1 km/h (3 Bft) 93,62 %
03.02.2023 21:08 8,4 C 7,8 C 5,0 C 92 % 1030,1 hPa 0,0 l/m 0 min 0 min 0 W/m 19,3 km/h (3 Bft) 97,87 %
03.02.2023 21:10 8,4 C 7,8 C 5,0 C 92 % 1030,2 hPa 0,0 l/m 0 min 0 min 0 W/m 16,1 km/h (3 Bft) 97,87 %
03.02.2023 21:12 8,4 C 7,8 C 5,0 C 92 % 1030,2 hPa 0,0 l/m 0 min 0 min 0 W/m 16,1 km/h (3 Bft) 95,74 %
03.02.2023 21:14 8,4 C 7,8 C 5,0 C 92 % 1030,2 hPa 0,0 l/m 0 min 0 min 0 W/m 12,9 km/h (3 Bft) 95,74 %
03.02.2023 21:16 8,4 C 7,8 C 5,0 C 91 % 1030,2 hPa 0,0 l/m 0 min 0 min 0 W/m 16,1 km/h (3 Bft) 97,87 %
03.02.2023 21:18 8,4 C 7,8 C 5,0 C 91 % 1030,2 hPa 0,0 l/m 0 min 0 min 0 W/m 16,1 km/h (3 Bft) 93,62 %
03.02.2023 21:20 8,4 C 7,8 C 5,0 C 91 % 1030,3 hPa 0,0 l/m 0 min 0 min 0 W/m 12,9 km/h (3 Bft) 100,00 %
03.02.2023 21:22 8,4 C 7,8 C 5,0 C 91 % 1030,3 hPa 0,0 l/m 0 min 0 min 0 W/m 22,5 km/h (4 Bft) 97,87 %
03.02.2023 21:24 8,4 C 7,8 C 5,0 C 91 % 1030,3 hPa 0,0 l/m 0 min 0 min 0 W/m 12,9 km/h (3 Bft) 95,74 %
03.02.2023 21:26 8,4 C 7,8 C 5,0 C 91 % 1030,3 hPa 0,0 l/m 0 min 0 min 0 W/m 12,9 km/h (3 Bft) 97,87 %
03.02.2023 21:28 8,4 C 7,8 C 5,0 C 91 % 1030,5 hPa 0,0 l/m 0 min 0 min 0 W/m 16,1 km/h (3 Bft) 100,00 %
03.02.2023 21:30 8,4 C 7,8 C 5,0 C 91 % 1030,4 hPa 0,0 l/m 0 min 0 min 0 W/m 16,1 km/h (3 Bft) 97,83 %
03.02.2023 21:32 8,4 C 7,8 C 5,0 C 91 % 1030,4 hPa 0,0 l/m 0 min 0 min 0 W/m 12,9 km/h (3 Bft) 100,00 %
03.02.2023 21:34 8,4 C 7,8 C 5,0 C 91 % 1030,3 hPa 0,0 l/m 0 min 0 min 0 W/m 19,3 km/h (3 Bft) 100,00 %
03.02.2023 21:36 8,4 C 7,8 C 5,0 C 90 % 1030,4 hPa 0,0 l/m 0 min 0 min 0 W/m 19,3 km/h (3 Bft) 97,87 %
03.02.2023 21:38 8,4 C 7,8 C 5,0 C 90 % 1030,4 hPa 0,0 l/m 0 min 0 min 0 W/m 19,3 km/h (3 Bft) 97,87 %
03.02.2023 21:40 8,4 C 7,8 C 5,0 C 90 % 1030,5 hPa 0,0 l/m 0 min 0 min 0 W/m 12,9 km/h (3 Bft) 97,87 %
03.02.2023 21:42 8,4 C 7,8 C 5,0 C 90 % 1030,5 hPa 0,0 l/m 0 min 0 min 0 W/m 16,1 km/h (3 Bft) 100,00 %
03.02.2023 21:44 8,4 C 7,8 C 5,0 C 90 % 1030,4 hPa 0,0 l/m 0 min 0 min 0 W/m 16,1 km/h (3 Bft) 97,87 %
03.02.2023 21:46 8,4 C 7,8 C 5,0 C 90 % 1030,4 hPa 0,0 l/m 0 min 0 min 0 W/m 16,1 km/h (3 Bft) 93,62 %
03.02.2023 21:48 8,4 C 7,8 C 5,0 C 89 % 1030,5 hPa 0,0 l/m 0 min 0 min 0 W/m 19,3 km/h (3 Bft) 97,87 %
03.02.2023 21:50 8,4 C 7,8 C 5,0 C 89 % 1030,5 hPa 0,0 l/m 0 min 0 min 0 W/m 16,1 km/h (3 Bft) 97,87 %
03.02.2023 21:52 8,4 C 7,8 C 5,0 C 89 % 1030,5 hPa 0,0 l/m 0 min 0 min 0 W/m 16,1 km/h (3 Bft) 97,87 %
03.02.2023 21:54 8,4 C 7,8 C 5,0 C 89 % 1030,4 hPa 0,0 l/m 0 min 0 min 0 W/m 16,1 km/h (3 Bft) 95,74 %
03.02.2023 21:56 8,4 C 7,8 C 5,0 C 88 % 1030,4 hPa 0,0 l/m 0 min 0 min 0 W/m 25,7 km/h (4 Bft) 97,83 %
03.02.2023 21:58 8,4 C 7,8 C 5,0 C 88 % 1030,4 hPa 0,0 l/m 0 min 0 min 0 W/m 19,3 km/h (3 Bft) 95,74 %
03.02.2023 22:00 8,3 C 7,8 C 4,4 C 88 % 1030,5 hPa 0,0 l/m 0 min 0 min 0 W/m 22,5 km/h (4 Bft) 97,87 %
03.02.2023 22:02 8,3 C 7,8 C 4,4 C 88 % 1030,5 hPa 0,0 l/m 0 min 0 min 0 W/m 19,3 km/h (3 Bft) 97,87 %
03.02.2023 22:04 8,3 C 7,8 C 4,4 C 87 % 1030,5 hPa 0,0 l/m 0 min 0 min 0 W/m 19,3 km/h (3 Bft) 95,74 %
03.02.2023 22:06 8,3 C 7,8 C 4,4 C 87 % 1030,5 hPa 0,0 l/m 0 min 0 min 0 W/m 12,9 km/h (3 Bft) 95,74 %
03.02.2023 22:08 8,3 C 7,8 C 4,4 C 87 % 1030,5 hPa 0,0 l/m 0 min 0 min 0 W/m 16,1 km/h (3 Bft) 93,48 %
03.02.2023 22:10 8,3 C 7,8 C 4,4 C 87 % 1030,6 hPa 0,0 l/m 0 min 0 min 0 W/m 19,3 km/h (3 Bft) 95,74 %
03.02.2023 22:12 8,3 C 7,8 C 4,4 C 87 % 1030,5 hPa 0,0 l/m 0 min 0 min 0 W/m 22,5 km/h (4 Bft) 95,74 %
03.02.2023 22:14 8,3 C 7,8 C 4,4 C 86 % 1030,5 hPa 0,0 l/m 0 min 0 min 0 W/m 12,9 km/h (3 Bft) 93,62 %
03.02.2023 22:16 8,3 C 7,8 C 4,4 C 86 % 1030,6 hPa 0,0 l/m 0 min 0 min 0 W/m 12,9 km/h (3 Bft) 93,62 %
03.02.2023 22:18 8,3 C 7,8 C 4,4 C 86 % 1030,6 hPa 0,0 l/m 0 min 0 min 0 W/m 12,9 km/h (3 Bft) 93,62 %
03.02.2023 22:20 8,3 C 7,8 C 4,4 C 86 % 1030,6 hPa 0,0 l/m 0 min 0 min 0 W/m 16,1 km/h (3 Bft) 95,74 %
03.02.2023 22:22 8,3 C 7,8 C 4,4 C 86 % 1030,5 hPa 0,0 l/m 0 min 0 min 0 W/m 12,9 km/h (3 Bft) 95,65 %
03.02.2023 22:24 8,3 C 7,8 C 4,4 C 86 % 1030,5 hPa 0,0 l/m 0 min 0 min 0 W/m 12,9 km/h (3 Bft) 95,74 %
03.02.2023 22:26 8,3 C 7,8 C 4,4 C 86 % 1030,6 hPa 0,0 l/m 0 min 0 min 0 W/m 16,1 km/h (3 Bft) 95,74 %
03.02.2023 22:28 8,3 C 7,8 C 4,4 C 86 % 1030,6 hPa 0,0 l/m 0 min 0 min 0 W/m 12,9 km/h (3 Bft) 95,74 %
03.02.2023 22:30 8,2 C 7,8 C 4,4 C 86 % 1030,6 hPa 0,0 l/m 0 min 0 min 0 W/m 12,9 km/h (3 Bft) 95,74 %
03.02.2023 22:32 8,2 C 7,2 C 4,4 C 86 % 1030,7 hPa 0,0 l/m 0 min 0 min 0 W/m 16,1 km/h (3 Bft) 93,62 %
03.02.2023 22:34 8,2 C 7,2 C 4,4 C 86 % 1030,8 hPa 0,0 l/m 0 min 0 min 0 W/m 22,5 km/h (4 Bft) 95,65 %
03.02.2023 22:36 8,2 C 7,2 C 4,4 C 86 % 1030,8 hPa 0,0 l/m 0 min 0 min 0 W/m 9,7 km/h (2 Bft) 93,62 %
03.02.2023 22:38 8,2 C 7,2 C 4,4 C 86 % 1030,7 hPa 0,0 l/m 0 min 0 min 0 W/m 9,7 km/h (2 Bft) 97,87 %
03.02.2023 22:40 8,2 C 7,2 C 4,4 C 86 % 1030,7 hPa 0,0 l/m 0 min 0 min 0 W/m 9,7 km/h (2 Bft) 95,74 %
03.02.2023 22:42 8,2 C 7,2 C 4,4 C 86 % 1030,7 hPa 0,0 l/m 0 min 0 min 0 W/m 6,4 km/h (2 Bft) 95,74 %
03.02.2023 22:44 8,2 C 7,2 C 4,4 C 85 % 1030,7 hPa 0,0 l/m 0 min 0 min 0 W/m 9,7 km/h (2 Bft) 93,62 %
03.02.2023 22:46 8,2 C 7,2 C 4,4 C 86 % 1030,7 hPa 0,0 l/m 0 min 0 min 0 W/m 6,4 km/h (2 Bft) 89,36 %
03.02.2023 22:48 8,2 C 7,2 C 4,4 C 86 % 1030,7 hPa 0,0 l/m 0 min 0 min 0 W/m 6,4 km/h (2 Bft) 95,65 %
03.02.2023 22:50 8,1 C 7,2 C 4,4 C 86 % 1030,7 hPa 0,0 l/m 0 min 0 min 0 W/m 12,9 km/h (3 Bft) 95,74 %
03.02.2023 22:52 8,1 C 7,2 C 4,4 C 86 % 1030,8 hPa 0,0 l/m 0 min 0 min 0 W/m 9,7 km/h (2 Bft) 97,87 %
03.02.2023 22:54 8,1 C 7,2 C 4,4 C 86 % 1030,7 hPa 0,0 l/m 0 min 0 min 0 W/m 16,1 km/h (3 Bft) 97,87 %
03.02.2023 22:56 8,1 C 7,2 C 4,4 C 86 % 1030,8 hPa 0,0 l/m 0 min 0 min 0 W/m 12,9 km/h (3 Bft) 95,74 %
03.02.2023 22:58 8,1 C 7,2 C 4,4 C 86 % 1030,8 hPa 0,0 l/m 0 min 0 min 0 W/m 12,9 km/h (3 Bft) 97,87 %
03.02.2023 23:00 8,1 C 7,2 C 4,4 C 86 % 1030,8 hPa 0,0 l/m 0 min 0 min 0 W/m 6,4 km/h (2 Bft) 97,83 %
03.02.2023 23:02 8,1 C 7,2 C 4,4 C 87 % 1030,8 hPa 0,0 l/m 0 min 0 min 0 W/m 9,7 km/h (2 Bft) 100,00 %
03.02.2023 23:04 8,1 C 7,2 C 4,4 C 87 % 1030,9 hPa 0,0 l/m 0 min 0 min 0 W/m 12,9 km/h (3 Bft) 95,74 %
03.02.2023 23:06 8,1 C 7,2 C 4,4 C 87 % 1030,9 hPa 0,0 l/m 0 min 0 min 0 W/m 16,1 km/h (3 Bft) 97,87 %
03.02.2023 23:08 8,1 C 7,2 C 4,4 C 87 % 1030,9 hPa 0,0 l/m 0 min 0 min 0 W/m 9,7 km/h (2 Bft) 97,87 %
03.02.2023 23:10 8,1 C 7,2 C 4,4 C 87 % 1030,9 hPa 0,0 l/m 0 min 0 min 0 W/m 16,1 km/h (3 Bft) 97,87 %
03.02.2023 23:12 8,1 C 7,2 C 4,4 C 87 % 1030,9 hPa 0,0 l/m 0 min 0 min 0 W/m 22,5 km/h (4 Bft) 97,87 %
03.02.2023 23:14 8,1 C 7,2 C 4,4 C 87 % 1031,0 hPa 0,0 l/m 0 min 0 min 0 W/m 22,5 km/h (4 Bft) 97,83 %
03.02.2023 23:16 8,1 C 7,2 C 4,4 C 87 % 1031,0 hPa 0,0 l/m 0 min 0 min 0 W/m 16,1 km/h (3 Bft) 97,87 %
03.02.2023 23:18 8,2 C 7,2 C 4,4 C 87 % 1031,0 hPa 0,0 l/m 0 min 0 min 0 W/m 16,1 km/h (3 Bft) 100,00 %
03.02.2023 23:20 8,2 C 7,2 C 4,4 C 87 % 1031,0 hPa 0,0 l/m 0 min 0 min 0 W/m 19,3 km/h (3 Bft) 100,00 %
03.02.2023 23:22 8,2 C 7,2 C 4,4 C 87 % 1031,1 hPa 0,0 l/m 0 min 0 min 0 W/m 16,1 km/h (3 Bft) 97,87 %
03.02.2023 23:24 8,2 C 7,2 C 4,4 C 87 % 1031,1 hPa 0,0 l/m 0 min 0 min 0 W/m 29,0 km/h (5 Bft) 100,00 %
03.02.2023 23:26 8,2 C 7,2 C 4,4 C 87 % 1031,2 hPa 0,0 l/m 0 min 0 min 0 W/m 16,1 km/h (3 Bft) 100,00 %
03.02.2023 23:28 8,2 C 7,2 C 4,4 C 87 % 1031,2 hPa 0,0 l/m 0 min 0 min 0 W/m 12,9 km/h (3 Bft) 100,00 %
03.02.2023 23:30 8,2 C 7,8 C 4,4 C 87 % 1031,2 hPa 0,0 l/m 0 min 0 min 0 W/m 16,1 km/h (3 Bft) 100,00 %
03.02.2023 23:32 8,2 C 7,2 C 4,4 C 87 % 1031,2 hPa 0,0 l/m 0 min 0 min 0 W/m 9,7 km/h (2 Bft) 97,87 %
03.02.2023 23:34 8,2 C 7,2 C 4,4 C 87 % 1031,2 hPa 0,0 l/m 0 min 0 min 0 W/m 9,7 km/h (2 Bft) 95,74 %
03.02.2023 23:36 8,2 C 7,2 C 4,4 C 87 % 1031,2 hPa 0,0 l/m 0 min 0 min 0 W/m 12,9 km/h (3 Bft) 100,00 %
03.02.2023 23:38 8,2 C 7,2 C 4,4 C 87 % 1031,2 hPa 0,0 l/m 0 min 0 min 0 W/m 12,9 km/h (3 Bft) 97,87 %
03.02.2023 23:40 8,2 C 7,2 C 4,4 C 87 % 1031,3 hPa 0,0 l/m 0 min 0 min 0 W/m 12,9 km/h (3 Bft) 100,00 %
03.02.2023 23:42 8,2 C 7,2 C 4,4 C 87 % 1031,3 hPa 0,0 l/m 0 min 0 min 0 W/m 16,1 km/h (3 Bft) 100,00 %
03.02.2023 23:44 8,2 C 7,2 C 4,4 C 87 % 1031,3 hPa 0,0 l/m 0 min 0 min 0 W/m 16,1 km/h (3 Bft) 100,00 %
03.02.2023 23:46 8,2 C 7,2 C 4,4 C 88 % 1031,3 hPa 0,0 l/m 0 min 0 min 0 W/m 9,7 km/h (2 Bft) 100,00 %
03.02.2023 23:48 8,2 C 7,2 C 4,4 C 88 % 1031,3 hPa 0,0 l/m 0 min 0 min 0 W/m 9,7 km/h (2 Bft) 97,87 %
03.02.2023 23:50 8,2 C 7,2 C 4,4 C 88 % 1031,2 hPa 0,0 l/m 0 min 0 min 0 W/m 9,7 km/h (2 Bft) 100,00 %
03.02.2023 23:52 8,1 C 7,2 C 4,4 C 88 % 1031,3 hPa 0,0 l/m 0 min 0 min 0 W/m 9,7 km/h (2 Bft) 100,00 %
03.02.2023 23:54 8,2 C 7,2 C 4,4 C 88 % 1031,3 hPa 0,0 l/m 0 min 0 min 0 W/m 12,9 km/h (3 Bft) 100,00 %
03.02.2023 23:56 8,1 C 7,2 C 4,4 C 88 % 1031,3 hPa 0,0 l/m 0 min 0 min 0 W/m 12,9 km/h (3 Bft) 100,00 %
03.02.2023 23:58 8,1 C 7,2 C 4,4 C 88 % 1031,3 hPa 0,0 l/m 0 min 0 min 0 W/m 16,1 km/h (3 Bft) 97,87 %
_ Min-Zeit 22:50 22:32 00:00 22:44 06:30 - - - - 17:16 16:42
Minimum _ 8,1 C 7,2 C 4,4 C 85 % 1024,7 hPa - - - - 3,2 km/h (1 Bft) 22,22 %
_ Max-Zeit 15:04 14:48 13:44 11:14 23:40 00:00 00:00 11:08 11:56 16:14 00:00
Maximum _ 10,3 C 10,0 C 6,7 C 95 % 1031,3 hPa 0,0 l/m 0 min 2 min 122 W/m 51,5 km/h
N-NW (7 Bft)
100,00 %
Durchschnitt _ 8,9 C 8,2 C 5,2 C 91 % 1026,8 hPa #0,0 l/m #0 min. #20 min. 31 W/m 17,6 km/h (3 Bft) 97,14 %
© 2023 W. Hausmann